<?xml version="1.0" encoding="UTF-8" standalone="no" ?>
<gpx xmlns="http://www.topografix.com/GPX/1/1" xmlns:xsi="http://www.w3.org/2001/XMLSchema-instance" xsi:schemaLocation="http://www.topografix.com/GPX/1/1 http://www.topografix.com/GPX/1/1/gpx.xsd" version="1.1" creator="VisuGPX - https://www.visugpx.com">
  <metadata>
    <name>Lapinous</name>
  </metadata>
  <trk>
    <name><![CDATA[Lapinous2 mars 2026]]></name>
    <trkseg>
      <trkpt lat="46.72055" lon="-1.9629">
        <ele>27</ele>
        <time>2026-02-24T14:09:22Z</time>
      </trkpt>
      <trkpt lat="46.72053" lon="-1.96291">
        <ele>25</ele>
        <time>2026-02-24T14:09:29Z</time>
      </trkpt>
      <trkpt lat="46.72054" lon="-1.9629">
        <ele>22</ele>
        <time>2026-02-24T14:09:41Z</time>
      </trkpt>
      <trkpt lat="46.72057" lon="-1.96288">
        <ele>20</ele>
        <time>2026-02-24T14:09:44Z</time>
      </trkpt>
      <trkpt lat="46.7206" lon="-1.96287">
        <ele>18</ele>
        <time>2026-02-24T14:09:47Z</time>
      </trkpt>
      <trkpt lat="46.72063" lon="-1.96286">
        <ele>17</ele>
        <time>2026-02-24T14:09:50Z</time>
      </trkpt>
      <trkpt lat="46.72066" lon="-1.96286">
        <ele>17</ele>
        <time>2026-02-24T14:09:52Z</time>
      </trkpt>
      <trkpt lat="46.7207" lon="-1.96286">
        <ele>16</ele>
        <time>2026-02-24T14:09:55Z</time>
      </trkpt>
      <trkpt lat="46.72074" lon="-1.96286">
        <ele>15</ele>
        <time>2026-02-24T14:09:57Z</time>
      </trkpt>
      <trkpt lat="46.72077" lon="-1.96286">
        <ele>15</ele>
        <time>2026-02-24T14:09:59Z</time>
      </trkpt>
      <trkpt lat="46.7208" lon="-1.96286">
        <ele>14</ele>
        <time>2026-02-24T14:10:02Z</time>
      </trkpt>
      <trkpt lat="46.72084" lon="-1.96287">
        <ele>14</ele>
        <time>2026-02-24T14:10:05Z</time>
      </trkpt>
      <trkpt lat="46.72087" lon="-1.96287">
        <ele>13</ele>
        <time>2026-02-24T14:10:08Z</time>
      </trkpt>
      <trkpt lat="46.72091" lon="-1.96287">
        <ele>13</ele>
        <time>2026-02-24T14:10:10Z</time>
      </trkpt>
      <trkpt lat="46.72094" lon="-1.96288">
        <ele>13</ele>
        <time>2026-02-24T14:10:12Z</time>
      </trkpt>
      <trkpt lat="46.72097" lon="-1.96288">
        <ele>13</ele>
        <time>2026-02-24T14:10:15Z</time>
      </trkpt>
      <trkpt lat="46.721" lon="-1.96288">
        <ele>13</ele>
        <time>2026-02-24T14:10:18Z</time>
      </trkpt>
      <trkpt lat="46.72103" lon="-1.96289">
        <ele>13</ele>
        <time>2026-02-24T14:10:24Z</time>
      </trkpt>
      <trkpt lat="46.72107" lon="-1.96293">
        <ele>14</ele>
        <time>2026-02-24T14:10:38Z</time>
      </trkpt>
      <trkpt lat="46.72111" lon="-1.96295">
        <ele>14</ele>
        <time>2026-02-24T14:10:41Z</time>
      </trkpt>
      <trkpt lat="46.72115" lon="-1.96297">
        <ele>14</ele>
        <time>2026-02-24T14:10:45Z</time>
      </trkpt>
      <trkpt lat="46.72118" lon="-1.96298">
        <ele>14</ele>
        <time>2026-02-24T14:10:48Z</time>
      </trkpt>
      <trkpt lat="46.72122" lon="-1.96299">
        <ele>15</ele>
        <time>2026-02-24T14:10:50Z</time>
      </trkpt>
      <trkpt lat="46.72125" lon="-1.96299">
        <ele>15</ele>
        <time>2026-02-24T14:10:52Z</time>
      </trkpt>
      <trkpt lat="46.72129" lon="-1.96299">
        <ele>15</ele>
        <time>2026-02-24T14:10:54Z</time>
      </trkpt>
      <trkpt lat="46.72131" lon="-1.963">
        <ele>16</ele>
        <time>2026-02-24T14:10:56Z</time>
      </trkpt>
      <trkpt lat="46.72135" lon="-1.963">
        <ele>16</ele>
        <time>2026-02-24T14:10:59Z</time>
      </trkpt>
      <trkpt lat="46.72138" lon="-1.963">
        <ele>16</ele>
        <time>2026-02-24T14:11:02Z</time>
      </trkpt>
      <trkpt lat="46.72142" lon="-1.96299">
        <ele>16</ele>
        <time>2026-02-24T14:11:05Z</time>
      </trkpt>
      <trkpt lat="46.72145" lon="-1.96298">
        <ele>16</ele>
        <time>2026-02-24T14:11:08Z</time>
      </trkpt>
      <trkpt lat="46.72149" lon="-1.96297">
        <ele>16</ele>
        <time>2026-02-24T14:11:11Z</time>
      </trkpt>
      <trkpt lat="46.72152" lon="-1.96295">
        <ele>16</ele>
        <time>2026-02-24T14:11:14Z</time>
      </trkpt>
      <trkpt lat="46.72156" lon="-1.96294">
        <ele>16</ele>
        <time>2026-02-24T14:11:17Z</time>
      </trkpt>
      <trkpt lat="46.72159" lon="-1.96294">
        <ele>15</ele>
        <time>2026-02-24T14:11:19Z</time>
      </trkpt>
      <trkpt lat="46.72162" lon="-1.96293">
        <ele>15</ele>
        <time>2026-02-24T14:11:21Z</time>
      </trkpt>
      <trkpt lat="46.72165" lon="-1.96293">
        <ele>15</ele>
        <time>2026-02-24T14:11:23Z</time>
      </trkpt>
      <trkpt lat="46.72169" lon="-1.96292">
        <ele>15</ele>
        <time>2026-02-24T14:11:25Z</time>
      </trkpt>
      <trkpt lat="46.72172" lon="-1.9629">
        <ele>15</ele>
        <time>2026-02-24T14:11:27Z</time>
      </trkpt>
      <trkpt lat="46.72175" lon="-1.96288">
        <ele>15</ele>
        <time>2026-02-24T14:11:29Z</time>
      </trkpt>
      <trkpt lat="46.72178" lon="-1.96288">
        <ele>15</ele>
        <time>2026-02-24T14:11:31Z</time>
      </trkpt>
      <trkpt lat="46.72181" lon="-1.96287">
        <ele>15</ele>
        <time>2026-02-24T14:11:33Z</time>
      </trkpt>
      <trkpt lat="46.72184" lon="-1.96286">
        <ele>15</ele>
        <time>2026-02-24T14:11:36Z</time>
      </trkpt>
      <trkpt lat="46.72187" lon="-1.96284">
        <ele>15</ele>
        <time>2026-02-24T14:11:39Z</time>
      </trkpt>
      <trkpt lat="46.72191" lon="-1.96283">
        <ele>15</ele>
        <time>2026-02-24T14:11:42Z</time>
      </trkpt>
      <trkpt lat="46.72195" lon="-1.96283">
        <ele>15</ele>
        <time>2026-02-24T14:11:44Z</time>
      </trkpt>
      <trkpt lat="46.72198" lon="-1.96283">
        <ele>15</ele>
        <time>2026-02-24T14:11:46Z</time>
      </trkpt>
      <trkpt lat="46.72202" lon="-1.96283">
        <ele>15</ele>
        <time>2026-02-24T14:11:49Z</time>
      </trkpt>
      <trkpt lat="46.72205" lon="-1.96283">
        <ele>15</ele>
        <time>2026-02-24T14:11:51Z</time>
      </trkpt>
      <trkpt lat="46.72208" lon="-1.96282">
        <ele>15</ele>
        <time>2026-02-24T14:11:53Z</time>
      </trkpt>
      <trkpt lat="46.72212" lon="-1.96282">
        <ele>14</ele>
        <time>2026-02-24T14:11:55Z</time>
      </trkpt>
      <trkpt lat="46.72215" lon="-1.96282">
        <ele>14</ele>
        <time>2026-02-24T14:11:57Z</time>
      </trkpt>
      <trkpt lat="46.72218" lon="-1.96283">
        <ele>14</ele>
        <time>2026-02-24T14:12:00Z</time>
      </trkpt>
      <trkpt lat="46.72221" lon="-1.96283">
        <ele>13</ele>
        <time>2026-02-24T14:12:02Z</time>
      </trkpt>
      <trkpt lat="46.72224" lon="-1.96283">
        <ele>13</ele>
        <time>2026-02-24T14:12:04Z</time>
      </trkpt>
      <trkpt lat="46.72227" lon="-1.96283">
        <ele>13</ele>
        <time>2026-02-24T14:12:06Z</time>
      </trkpt>
      <trkpt lat="46.72231" lon="-1.96282">
        <ele>12</ele>
        <time>2026-02-24T14:12:08Z</time>
      </trkpt>
      <trkpt lat="46.72234" lon="-1.96281">
        <ele>13</ele>
        <time>2026-02-24T14:12:10Z</time>
      </trkpt>
      <trkpt lat="46.72238" lon="-1.9628">
        <ele>13</ele>
        <time>2026-02-24T14:12:12Z</time>
      </trkpt>
      <trkpt lat="46.72241" lon="-1.96279">
        <ele>13</ele>
        <time>2026-02-24T14:12:14Z</time>
      </trkpt>
      <trkpt lat="46.72244" lon="-1.96277">
        <ele>13</ele>
        <time>2026-02-24T14:12:16Z</time>
      </trkpt>
      <trkpt lat="46.72247" lon="-1.96275">
        <ele>13</ele>
        <time>2026-02-24T14:12:19Z</time>
      </trkpt>
      <trkpt lat="46.7225" lon="-1.96274">
        <ele>14</ele>
        <time>2026-02-24T14:12:21Z</time>
      </trkpt>
      <trkpt lat="46.72254" lon="-1.96273">
        <ele>14</ele>
        <time>2026-02-24T14:12:24Z</time>
      </trkpt>
      <trkpt lat="46.72257" lon="-1.96272">
        <ele>15</ele>
        <time>2026-02-24T14:12:27Z</time>
      </trkpt>
      <trkpt lat="46.7226" lon="-1.96271">
        <ele>15</ele>
        <time>2026-02-24T14:12:29Z</time>
      </trkpt>
      <trkpt lat="46.72264" lon="-1.9627">
        <ele>16</ele>
        <time>2026-02-24T14:12:32Z</time>
      </trkpt>
      <trkpt lat="46.72267" lon="-1.96271">
        <ele>17</ele>
        <time>2026-02-24T14:12:35Z</time>
      </trkpt>
      <trkpt lat="46.7227" lon="-1.96274">
        <ele>17</ele>
        <time>2026-02-24T14:12:38Z</time>
      </trkpt>
      <trkpt lat="46.72271" lon="-1.96278">
        <ele>18</ele>
        <time>2026-02-24T14:12:41Z</time>
      </trkpt>
      <trkpt lat="46.72271" lon="-1.96283">
        <ele>18</ele>
        <time>2026-02-24T14:12:44Z</time>
      </trkpt>
      <trkpt lat="46.72271" lon="-1.96288">
        <ele>18</ele>
        <time>2026-02-24T14:12:46Z</time>
      </trkpt>
      <trkpt lat="46.7227" lon="-1.96293">
        <ele>18</ele>
        <time>2026-02-24T14:12:49Z</time>
      </trkpt>
      <trkpt lat="46.72268" lon="-1.96297">
        <ele>17</ele>
        <time>2026-02-24T14:12:57Z</time>
      </trkpt>
      <trkpt lat="46.72267" lon="-1.96301">
        <ele>16</ele>
        <time>2026-02-24T14:13:00Z</time>
      </trkpt>
      <trkpt lat="46.72265" lon="-1.96306">
        <ele>15</ele>
        <time>2026-02-24T14:13:03Z</time>
      </trkpt>
      <trkpt lat="46.72264" lon="-1.9631">
        <ele>15</ele>
        <time>2026-02-24T14:13:06Z</time>
      </trkpt>
      <trkpt lat="46.72263" lon="-1.96315">
        <ele>15</ele>
        <time>2026-02-24T14:13:10Z</time>
      </trkpt>
      <trkpt lat="46.72263" lon="-1.96321">
        <ele>14</ele>
        <time>2026-02-24T14:13:13Z</time>
      </trkpt>
      <trkpt lat="46.72262" lon="-1.96325">
        <ele>15</ele>
        <time>2026-02-24T14:13:15Z</time>
      </trkpt>
      <trkpt lat="46.72262" lon="-1.9633">
        <ele>15</ele>
        <time>2026-02-24T14:13:17Z</time>
      </trkpt>
      <trkpt lat="46.72261" lon="-1.96334">
        <ele>14</ele>
        <time>2026-02-24T14:13:19Z</time>
      </trkpt>
      <trkpt lat="46.7226" lon="-1.96339">
        <ele>14</ele>
        <time>2026-02-24T14:13:22Z</time>
      </trkpt>
      <trkpt lat="46.72259" lon="-1.96344">
        <ele>13</ele>
        <time>2026-02-24T14:13:25Z</time>
      </trkpt>
      <trkpt lat="46.72258" lon="-1.9635">
        <ele>13</ele>
        <time>2026-02-24T14:13:28Z</time>
      </trkpt>
      <trkpt lat="46.72257" lon="-1.96355">
        <ele>12</ele>
        <time>2026-02-24T14:13:30Z</time>
      </trkpt>
      <trkpt lat="46.72256" lon="-1.96359">
        <ele>12</ele>
        <time>2026-02-24T14:13:32Z</time>
      </trkpt>
      <trkpt lat="46.72255" lon="-1.96364">
        <ele>11</ele>
        <time>2026-02-24T14:13:35Z</time>
      </trkpt>
      <trkpt lat="46.72254" lon="-1.96368">
        <ele>11</ele>
        <time>2026-02-24T14:13:38Z</time>
      </trkpt>
      <trkpt lat="46.72252" lon="-1.96373">
        <ele>10</ele>
        <time>2026-02-24T14:13:41Z</time>
      </trkpt>
      <trkpt lat="46.72251" lon="-1.96377">
        <ele>9</ele>
        <time>2026-02-24T14:13:43Z</time>
      </trkpt>
      <trkpt lat="46.7225" lon="-1.96381">
        <ele>9</ele>
        <time>2026-02-24T14:13:46Z</time>
      </trkpt>
      <trkpt lat="46.7225" lon="-1.96386">
        <ele>8</ele>
        <time>2026-02-24T14:13:49Z</time>
      </trkpt>
      <trkpt lat="46.7225" lon="-1.96391">
        <ele>7</ele>
        <time>2026-02-24T14:13:52Z</time>
      </trkpt>
      <trkpt lat="46.72249" lon="-1.96396">
        <ele>7</ele>
        <time>2026-02-24T14:13:55Z</time>
      </trkpt>
      <trkpt lat="46.72248" lon="-1.96401">
        <ele>6</ele>
        <time>2026-02-24T14:13:57Z</time>
      </trkpt>
      <trkpt lat="46.72246" lon="-1.96406">
        <ele>5</ele>
        <time>2026-02-24T14:14:00Z</time>
      </trkpt>
      <trkpt lat="46.72245" lon="-1.96412">
        <ele>4</ele>
        <time>2026-02-24T14:14:02Z</time>
      </trkpt>
      <trkpt lat="46.72244" lon="-1.96416">
        <ele>4</ele>
        <time>2026-02-24T14:14:04Z</time>
      </trkpt>
      <trkpt lat="46.72243" lon="-1.96422">
        <ele>3</ele>
        <time>2026-02-24T14:14:07Z</time>
      </trkpt>
      <trkpt lat="46.72242" lon="-1.96426">
        <ele>3</ele>
        <time>2026-02-24T14:14:09Z</time>
      </trkpt>
      <trkpt lat="46.72241" lon="-1.96431">
        <ele>3</ele>
        <time>2026-02-24T14:14:12Z</time>
      </trkpt>
      <trkpt lat="46.7224" lon="-1.96435">
        <ele>3</ele>
        <time>2026-02-24T14:14:14Z</time>
      </trkpt>
      <trkpt lat="46.72239" lon="-1.9644">
        <ele>3</ele>
        <time>2026-02-24T14:14:16Z</time>
      </trkpt>
      <trkpt lat="46.72239" lon="-1.96445">
        <ele>3</ele>
        <time>2026-02-24T14:14:18Z</time>
      </trkpt>
      <trkpt lat="46.72238" lon="-1.9645">
        <ele>3</ele>
        <time>2026-02-24T14:14:20Z</time>
      </trkpt>
      <trkpt lat="46.72237" lon="-1.96454">
        <ele>4</ele>
        <time>2026-02-24T14:14:22Z</time>
      </trkpt>
      <trkpt lat="46.72235" lon="-1.96458">
        <ele>4</ele>
        <time>2026-02-24T14:14:25Z</time>
      </trkpt>
      <trkpt lat="46.72234" lon="-1.96462">
        <ele>5</ele>
        <time>2026-02-24T14:14:28Z</time>
      </trkpt>
      <trkpt lat="46.72233" lon="-1.96467">
        <ele>6</ele>
        <time>2026-02-24T14:14:31Z</time>
      </trkpt>
      <trkpt lat="46.72232" lon="-1.96472">
        <ele>6</ele>
        <time>2026-02-24T14:14:34Z</time>
      </trkpt>
      <trkpt lat="46.72231" lon="-1.96477">
        <ele>6</ele>
        <time>2026-02-24T14:14:36Z</time>
      </trkpt>
      <trkpt lat="46.7223" lon="-1.96482">
        <ele>6</ele>
        <time>2026-02-24T14:14:38Z</time>
      </trkpt>
      <trkpt lat="46.72228" lon="-1.96486">
        <ele>6</ele>
        <time>2026-02-24T14:14:40Z</time>
      </trkpt>
      <trkpt lat="46.72227" lon="-1.9649">
        <ele>6</ele>
        <time>2026-02-24T14:14:42Z</time>
      </trkpt>
      <trkpt lat="46.72226" lon="-1.96495">
        <ele>6</ele>
        <time>2026-02-24T14:14:45Z</time>
      </trkpt>
      <trkpt lat="46.72224" lon="-1.965">
        <ele>6</ele>
        <time>2026-02-24T14:14:47Z</time>
      </trkpt>
      <trkpt lat="46.72223" lon="-1.96504">
        <ele>5</ele>
        <time>2026-02-24T14:14:49Z</time>
      </trkpt>
      <trkpt lat="46.72221" lon="-1.96507">
        <ele>5</ele>
        <time>2026-02-24T14:14:51Z</time>
      </trkpt>
      <trkpt lat="46.7222" lon="-1.96511">
        <ele>5</ele>
        <time>2026-02-24T14:14:53Z</time>
      </trkpt>
      <trkpt lat="46.72219" lon="-1.96515">
        <ele>5</ele>
        <time>2026-02-24T14:14:55Z</time>
      </trkpt>
      <trkpt lat="46.72218" lon="-1.96519">
        <ele>5</ele>
        <time>2026-02-24T14:14:57Z</time>
      </trkpt>
      <trkpt lat="46.72216" lon="-1.96524">
        <ele>5</ele>
        <time>2026-02-24T14:14:59Z</time>
      </trkpt>
      <trkpt lat="46.72215" lon="-1.96527">
        <ele>5</ele>
        <time>2026-02-24T14:15:02Z</time>
      </trkpt>
      <trkpt lat="46.72213" lon="-1.9653">
        <ele>5</ele>
        <time>2026-02-24T14:15:06Z</time>
      </trkpt>
      <trkpt lat="46.72211" lon="-1.96535">
        <ele>5</ele>
        <time>2026-02-24T14:15:09Z</time>
      </trkpt>
      <trkpt lat="46.7221" lon="-1.96539">
        <ele>5</ele>
        <time>2026-02-24T14:15:11Z</time>
      </trkpt>
      <trkpt lat="46.7221" lon="-1.96543">
        <ele>5</ele>
        <time>2026-02-24T14:15:13Z</time>
      </trkpt>
      <trkpt lat="46.72209" lon="-1.96547">
        <ele>6</ele>
        <time>2026-02-24T14:15:16Z</time>
      </trkpt>
      <trkpt lat="46.72208" lon="-1.96551">
        <ele>6</ele>
        <time>2026-02-24T14:15:20Z</time>
      </trkpt>
      <trkpt lat="46.72207" lon="-1.96556">
        <ele>7</ele>
        <time>2026-02-24T14:15:24Z</time>
      </trkpt>
      <trkpt lat="46.72206" lon="-1.9656">
        <ele>8</ele>
        <time>2026-02-24T14:15:27Z</time>
      </trkpt>
      <trkpt lat="46.72205" lon="-1.96565">
        <ele>9</ele>
        <time>2026-02-24T14:15:30Z</time>
      </trkpt>
      <trkpt lat="46.72204" lon="-1.9657">
        <ele>10</ele>
        <time>2026-02-24T14:15:33Z</time>
      </trkpt>
      <trkpt lat="46.72203" lon="-1.96574">
        <ele>10</ele>
        <time>2026-02-24T14:15:35Z</time>
      </trkpt>
      <trkpt lat="46.72202" lon="-1.96578">
        <ele>11</ele>
        <time>2026-02-24T14:15:37Z</time>
      </trkpt>
      <trkpt lat="46.722" lon="-1.96581">
        <ele>11</ele>
        <time>2026-02-24T14:15:39Z</time>
      </trkpt>
      <trkpt lat="46.72198" lon="-1.96585">
        <ele>11</ele>
        <time>2026-02-24T14:15:41Z</time>
      </trkpt>
      <trkpt lat="46.72197" lon="-1.96589">
        <ele>11</ele>
        <time>2026-02-24T14:15:43Z</time>
      </trkpt>
      <trkpt lat="46.72195" lon="-1.96592">
        <ele>12</ele>
        <time>2026-02-24T14:15:45Z</time>
      </trkpt>
      <trkpt lat="46.72193" lon="-1.96595">
        <ele>12</ele>
        <time>2026-02-24T14:15:47Z</time>
      </trkpt>
      <trkpt lat="46.72191" lon="-1.96599">
        <ele>13</ele>
        <time>2026-02-24T14:15:49Z</time>
      </trkpt>
      <trkpt lat="46.72189" lon="-1.96603">
        <ele>13</ele>
        <time>2026-02-24T14:15:51Z</time>
      </trkpt>
      <trkpt lat="46.72187" lon="-1.96607">
        <ele>13</ele>
        <time>2026-02-24T14:15:53Z</time>
      </trkpt>
      <trkpt lat="46.72185" lon="-1.96611">
        <ele>13</ele>
        <time>2026-02-24T14:15:55Z</time>
      </trkpt>
      <trkpt lat="46.72184" lon="-1.96615">
        <ele>12</ele>
        <time>2026-02-24T14:15:58Z</time>
      </trkpt>
      <trkpt lat="46.72183" lon="-1.96619">
        <ele>12</ele>
        <time>2026-02-24T14:16:00Z</time>
      </trkpt>
      <trkpt lat="46.72181" lon="-1.96623">
        <ele>11</ele>
        <time>2026-02-24T14:16:03Z</time>
      </trkpt>
      <trkpt lat="46.72179" lon="-1.96627">
        <ele>11</ele>
        <time>2026-02-24T14:16:06Z</time>
      </trkpt>
      <trkpt lat="46.72177" lon="-1.96631">
        <ele>10</ele>
        <time>2026-02-24T14:16:08Z</time>
      </trkpt>
      <trkpt lat="46.72175" lon="-1.96636">
        <ele>10</ele>
        <time>2026-02-24T14:16:10Z</time>
      </trkpt>
      <trkpt lat="46.72174" lon="-1.9664">
        <ele>10</ele>
        <time>2026-02-24T14:16:12Z</time>
      </trkpt>
      <trkpt lat="46.72172" lon="-1.96644">
        <ele>10</ele>
        <time>2026-02-24T14:16:14Z</time>
      </trkpt>
      <trkpt lat="46.72171" lon="-1.96649">
        <ele>10</ele>
        <time>2026-02-24T14:16:16Z</time>
      </trkpt>
      <trkpt lat="46.72169" lon="-1.96653">
        <ele>10</ele>
        <time>2026-02-24T14:16:19Z</time>
      </trkpt>
      <trkpt lat="46.72166" lon="-1.96655">
        <ele>10</ele>
        <time>2026-02-24T14:16:23Z</time>
      </trkpt>
      <trkpt lat="46.72163" lon="-1.96656">
        <ele>9</ele>
        <time>2026-02-24T14:16:31Z</time>
      </trkpt>
      <trkpt lat="46.72162" lon="-1.96659">
        <ele>8</ele>
        <time>2026-02-24T14:16:34Z</time>
      </trkpt>
      <trkpt lat="46.72161" lon="-1.96663">
        <ele>8</ele>
        <time>2026-02-24T14:16:36Z</time>
      </trkpt>
      <trkpt lat="46.7216" lon="-1.96668">
        <ele>7</ele>
        <time>2026-02-24T14:16:39Z</time>
      </trkpt>
      <trkpt lat="46.72159" lon="-1.96673">
        <ele>7</ele>
        <time>2026-02-24T14:16:42Z</time>
      </trkpt>
      <trkpt lat="46.72157" lon="-1.96677">
        <ele>6</ele>
        <time>2026-02-24T14:16:44Z</time>
      </trkpt>
      <trkpt lat="46.72156" lon="-1.96682">
        <ele>5</ele>
        <time>2026-02-24T14:16:46Z</time>
      </trkpt>
      <trkpt lat="46.72155" lon="-1.96687">
        <ele>4</ele>
        <time>2026-02-24T14:16:49Z</time>
      </trkpt>
      <trkpt lat="46.72154" lon="-1.96691">
        <ele>4</ele>
        <time>2026-02-24T14:16:51Z</time>
      </trkpt>
      <trkpt lat="46.72153" lon="-1.96696">
        <ele>4</ele>
        <time>2026-02-24T14:16:53Z</time>
      </trkpt>
      <trkpt lat="46.72153" lon="-1.96701">
        <ele>3</ele>
        <time>2026-02-24T14:16:56Z</time>
      </trkpt>
      <trkpt lat="46.72152" lon="-1.96705">
        <ele>3</ele>
        <time>2026-02-24T14:16:58Z</time>
      </trkpt>
      <trkpt lat="46.72152" lon="-1.9671">
        <ele>3</ele>
        <time>2026-02-24T14:17:00Z</time>
      </trkpt>
      <trkpt lat="46.72151" lon="-1.96715">
        <ele>3</ele>
        <time>2026-02-24T14:17:02Z</time>
      </trkpt>
      <trkpt lat="46.7215" lon="-1.9672">
        <ele>3</ele>
        <time>2026-02-24T14:17:04Z</time>
      </trkpt>
      <trkpt lat="46.72149" lon="-1.96724">
        <ele>3</ele>
        <time>2026-02-24T14:17:06Z</time>
      </trkpt>
      <trkpt lat="46.72149" lon="-1.96729">
        <ele>3</ele>
        <time>2026-02-24T14:17:15Z</time>
      </trkpt>
      <trkpt lat="46.72148" lon="-1.96733">
        <ele>3</ele>
        <time>2026-02-24T14:17:18Z</time>
      </trkpt>
      <trkpt lat="46.72149" lon="-1.96737">
        <ele>4</ele>
        <time>2026-02-24T14:17:22Z</time>
      </trkpt>
      <trkpt lat="46.7215" lon="-1.96741">
        <ele>4</ele>
        <time>2026-02-24T14:17:25Z</time>
      </trkpt>
      <trkpt lat="46.72152" lon="-1.96745">
        <ele>5</ele>
        <time>2026-02-24T14:17:28Z</time>
      </trkpt>
      <trkpt lat="46.72154" lon="-1.96749">
        <ele>5</ele>
        <time>2026-02-24T14:17:31Z</time>
      </trkpt>
      <trkpt lat="46.72155" lon="-1.96752">
        <ele>5</ele>
        <time>2026-02-24T14:17:34Z</time>
      </trkpt>
      <trkpt lat="46.72157" lon="-1.96755">
        <ele>6</ele>
        <time>2026-02-24T14:17:37Z</time>
      </trkpt>
      <trkpt lat="46.7216" lon="-1.96759">
        <ele>6</ele>
        <time>2026-02-24T14:17:40Z</time>
      </trkpt>
      <trkpt lat="46.72163" lon="-1.96763">
        <ele>6</ele>
        <time>2026-02-24T14:17:43Z</time>
      </trkpt>
      <trkpt lat="46.72165" lon="-1.96766">
        <ele>6</ele>
        <time>2026-02-24T14:17:45Z</time>
      </trkpt>
      <trkpt lat="46.72167" lon="-1.9677">
        <ele>6</ele>
        <time>2026-02-24T14:17:47Z</time>
      </trkpt>
      <trkpt lat="46.72169" lon="-1.96773">
        <ele>6</ele>
        <time>2026-02-24T14:17:49Z</time>
      </trkpt>
      <trkpt lat="46.72171" lon="-1.96776">
        <ele>6</ele>
        <time>2026-02-24T14:17:51Z</time>
      </trkpt>
      <trkpt lat="46.72173" lon="-1.9678">
        <ele>6</ele>
        <time>2026-02-24T14:17:53Z</time>
      </trkpt>
      <trkpt lat="46.72175" lon="-1.96783">
        <ele>6</ele>
        <time>2026-02-24T14:17:56Z</time>
      </trkpt>
      <trkpt lat="46.72178" lon="-1.96787">
        <ele>7</ele>
        <time>2026-02-24T14:17:59Z</time>
      </trkpt>
      <trkpt lat="46.7218" lon="-1.96791">
        <ele>7</ele>
        <time>2026-02-24T14:18:01Z</time>
      </trkpt>
      <trkpt lat="46.72182" lon="-1.96795">
        <ele>7</ele>
        <time>2026-02-24T14:18:03Z</time>
      </trkpt>
      <trkpt lat="46.72184" lon="-1.96799">
        <ele>8</ele>
        <time>2026-02-24T14:18:05Z</time>
      </trkpt>
      <trkpt lat="46.72186" lon="-1.96802">
        <ele>9</ele>
        <time>2026-02-24T14:18:08Z</time>
      </trkpt>
      <trkpt lat="46.72188" lon="-1.96807">
        <ele>11</ele>
        <time>2026-02-24T14:18:15Z</time>
      </trkpt>
      <trkpt lat="46.7219" lon="-1.9681">
        <ele>11</ele>
        <time>2026-02-24T14:18:18Z</time>
      </trkpt>
      <trkpt lat="46.72192" lon="-1.96814">
        <ele>12</ele>
        <time>2026-02-24T14:18:21Z</time>
      </trkpt>
      <trkpt lat="46.72194" lon="-1.96818">
        <ele>13</ele>
        <time>2026-02-24T14:18:24Z</time>
      </trkpt>
      <trkpt lat="46.72196" lon="-1.96823">
        <ele>13</ele>
        <time>2026-02-24T14:18:26Z</time>
      </trkpt>
      <trkpt lat="46.72199" lon="-1.96826">
        <ele>14</ele>
        <time>2026-02-24T14:18:28Z</time>
      </trkpt>
      <trkpt lat="46.722" lon="-1.9683">
        <ele>14</ele>
        <time>2026-02-24T14:18:30Z</time>
      </trkpt>
      <trkpt lat="46.72203" lon="-1.96833">
        <ele>14</ele>
        <time>2026-02-24T14:18:32Z</time>
      </trkpt>
      <trkpt lat="46.72205" lon="-1.96837">
        <ele>14</ele>
        <time>2026-02-24T14:18:34Z</time>
      </trkpt>
      <trkpt lat="46.72207" lon="-1.9684">
        <ele>13</ele>
        <time>2026-02-24T14:18:37Z</time>
      </trkpt>
      <trkpt lat="46.72209" lon="-1.96844">
        <ele>13</ele>
        <time>2026-02-24T14:18:40Z</time>
      </trkpt>
      <trkpt lat="46.72211" lon="-1.96847">
        <ele>12</ele>
        <time>2026-02-24T14:18:43Z</time>
      </trkpt>
      <trkpt lat="46.72214" lon="-1.96851">
        <ele>12</ele>
        <time>2026-02-24T14:18:46Z</time>
      </trkpt>
      <trkpt lat="46.72216" lon="-1.96855">
        <ele>12</ele>
        <time>2026-02-24T14:18:49Z</time>
      </trkpt>
      <trkpt lat="46.72218" lon="-1.96859">
        <ele>11</ele>
        <time>2026-02-24T14:18:51Z</time>
      </trkpt>
      <trkpt lat="46.7222" lon="-1.96863">
        <ele>11</ele>
        <time>2026-02-24T14:18:53Z</time>
      </trkpt>
      <trkpt lat="46.72222" lon="-1.96867">
        <ele>11</ele>
        <time>2026-02-24T14:18:55Z</time>
      </trkpt>
      <trkpt lat="46.72225" lon="-1.9687">
        <ele>11</ele>
        <time>2026-02-24T14:18:58Z</time>
      </trkpt>
      <trkpt lat="46.72228" lon="-1.96873">
        <ele>11</ele>
        <time>2026-02-24T14:19:02Z</time>
      </trkpt>
      <trkpt lat="46.7223" lon="-1.96878">
        <ele>12</ele>
        <time>2026-02-24T14:19:05Z</time>
      </trkpt>
      <trkpt lat="46.72233" lon="-1.96882">
        <ele>12</ele>
        <time>2026-02-24T14:19:08Z</time>
      </trkpt>
      <trkpt lat="46.72236" lon="-1.96885">
        <ele>12</ele>
        <time>2026-02-24T14:19:10Z</time>
      </trkpt>
      <trkpt lat="46.72238" lon="-1.96888">
        <ele>12</ele>
        <time>2026-02-24T14:19:12Z</time>
      </trkpt>
      <trkpt lat="46.7224" lon="-1.96891">
        <ele>12</ele>
        <time>2026-02-24T14:19:13Z</time>
      </trkpt>
      <trkpt lat="46.72243" lon="-1.96896">
        <ele>12</ele>
        <time>2026-02-24T14:19:15Z</time>
      </trkpt>
      <trkpt lat="46.72245" lon="-1.96899">
        <ele>12</ele>
        <time>2026-02-24T14:19:17Z</time>
      </trkpt>
      <trkpt lat="46.72247" lon="-1.96903">
        <ele>12</ele>
        <time>2026-02-24T14:19:19Z</time>
      </trkpt>
      <trkpt lat="46.72249" lon="-1.96907">
        <ele>12</ele>
        <time>2026-02-24T14:19:21Z</time>
      </trkpt>
      <trkpt lat="46.72252" lon="-1.9691">
        <ele>12</ele>
        <time>2026-02-24T14:19:23Z</time>
      </trkpt>
      <trkpt lat="46.72254" lon="-1.96912">
        <ele>12</ele>
        <time>2026-02-24T14:19:25Z</time>
      </trkpt>
      <trkpt lat="46.72257" lon="-1.96916">
        <ele>12</ele>
        <time>2026-02-24T14:19:28Z</time>
      </trkpt>
      <trkpt lat="46.72259" lon="-1.96921">
        <ele>12</ele>
        <time>2026-02-24T14:19:30Z</time>
      </trkpt>
      <trkpt lat="46.72261" lon="-1.96925">
        <ele>12</ele>
        <time>2026-02-24T14:19:32Z</time>
      </trkpt>
      <trkpt lat="46.72263" lon="-1.9693">
        <ele>12</ele>
        <time>2026-02-24T14:19:34Z</time>
      </trkpt>
      <trkpt lat="46.72265" lon="-1.96933">
        <ele>12</ele>
        <time>2026-02-24T14:19:36Z</time>
      </trkpt>
      <trkpt lat="46.72267" lon="-1.96937">
        <ele>11</ele>
        <time>2026-02-24T14:19:38Z</time>
      </trkpt>
      <trkpt lat="46.72269" lon="-1.9694">
        <ele>11</ele>
        <time>2026-02-24T14:19:40Z</time>
      </trkpt>
      <trkpt lat="46.72271" lon="-1.96945">
        <ele>10</ele>
        <time>2026-02-24T14:19:42Z</time>
      </trkpt>
      <trkpt lat="46.72272" lon="-1.9695">
        <ele>9</ele>
        <time>2026-02-24T14:19:45Z</time>
      </trkpt>
      <trkpt lat="46.72273" lon="-1.96954">
        <ele>8</ele>
        <time>2026-02-24T14:19:47Z</time>
      </trkpt>
      <trkpt lat="46.72275" lon="-1.96959">
        <ele>8</ele>
        <time>2026-02-24T14:19:49Z</time>
      </trkpt>
      <trkpt lat="46.72276" lon="-1.96963">
        <ele>7</ele>
        <time>2026-02-24T14:19:51Z</time>
      </trkpt>
      <trkpt lat="46.72278" lon="-1.96968">
        <ele>7</ele>
        <time>2026-02-24T14:19:54Z</time>
      </trkpt>
      <trkpt lat="46.72279" lon="-1.96972">
        <ele>6</ele>
        <time>2026-02-24T14:19:56Z</time>
      </trkpt>
      <trkpt lat="46.72281" lon="-1.96976">
        <ele>6</ele>
        <time>2026-02-24T14:19:58Z</time>
      </trkpt>
      <trkpt lat="46.72283" lon="-1.96979">
        <ele>5</ele>
        <time>2026-02-24T14:20:01Z</time>
      </trkpt>
      <trkpt lat="46.72283" lon="-1.96984">
        <ele>4</ele>
        <time>2026-02-24T14:20:06Z</time>
      </trkpt>
      <trkpt lat="46.72285" lon="-1.96989">
        <ele>4</ele>
        <time>2026-02-24T14:20:09Z</time>
      </trkpt>
      <trkpt lat="46.72286" lon="-1.96993">
        <ele>4</ele>
        <time>2026-02-24T14:20:11Z</time>
      </trkpt>
      <trkpt lat="46.72288" lon="-1.96996">
        <ele>3</ele>
        <time>2026-02-24T14:20:13Z</time>
      </trkpt>
      <trkpt lat="46.72291" lon="-1.97">
        <ele>4</ele>
        <time>2026-02-24T14:20:16Z</time>
      </trkpt>
      <trkpt lat="46.7229" lon="-1.97002">
        <ele>5</ele>
        <time>2026-02-24T14:20:23Z</time>
      </trkpt>
      <trkpt lat="46.72291" lon="-1.97004">
        <ele>6</ele>
        <time>2026-02-24T14:20:46Z</time>
      </trkpt>
      <trkpt lat="46.72293" lon="-1.97007">
        <ele>6</ele>
        <time>2026-02-24T14:20:52Z</time>
      </trkpt>
      <trkpt lat="46.72292" lon="-1.97009">
        <ele>5</ele>
        <time>2026-02-24T14:21:07Z</time>
      </trkpt>
      <trkpt lat="46.7229" lon="-1.97008">
        <ele>4</ele>
        <time>2026-02-24T14:21:11Z</time>
      </trkpt>
      <trkpt lat="46.72288" lon="-1.97007">
        <ele>6</ele>
        <time>2026-02-24T14:21:20Z</time>
      </trkpt>
      <trkpt lat="46.72289" lon="-1.97007">
        <ele>6</ele>
        <time>2026-02-24T14:22:03Z</time>
      </trkpt>
      <trkpt lat="46.72291" lon="-1.97007">
        <ele>6</ele>
        <time>2026-02-24T14:22:13Z</time>
      </trkpt>
      <trkpt lat="46.72294" lon="-1.97009">
        <ele>7</ele>
        <time>2026-02-24T14:22:16Z</time>
      </trkpt>
      <trkpt lat="46.72297" lon="-1.97013">
        <ele>7</ele>
        <time>2026-02-24T14:22:19Z</time>
      </trkpt>
      <trkpt lat="46.72299" lon="-1.97017">
        <ele>7</ele>
        <time>2026-02-24T14:22:22Z</time>
      </trkpt>
      <trkpt lat="46.72302" lon="-1.97021">
        <ele>7</ele>
        <time>2026-02-24T14:22:25Z</time>
      </trkpt>
      <trkpt lat="46.72304" lon="-1.97025">
        <ele>7</ele>
        <time>2026-02-24T14:22:27Z</time>
      </trkpt>
      <trkpt lat="46.72306" lon="-1.97029">
        <ele>7</ele>
        <time>2026-02-24T14:22:29Z</time>
      </trkpt>
      <trkpt lat="46.72307" lon="-1.97033">
        <ele>6</ele>
        <time>2026-02-24T14:22:31Z</time>
      </trkpt>
      <trkpt lat="46.72309" lon="-1.97036">
        <ele>6</ele>
        <time>2026-02-24T14:22:33Z</time>
      </trkpt>
      <trkpt lat="46.72311" lon="-1.9704">
        <ele>6</ele>
        <time>2026-02-24T14:22:35Z</time>
      </trkpt>
      <trkpt lat="46.72313" lon="-1.97043">
        <ele>5</ele>
        <time>2026-02-24T14:22:37Z</time>
      </trkpt>
      <trkpt lat="46.72315" lon="-1.97047">
        <ele>5</ele>
        <time>2026-02-24T14:22:39Z</time>
      </trkpt>
      <trkpt lat="46.72317" lon="-1.97051">
        <ele>4</ele>
        <time>2026-02-24T14:22:41Z</time>
      </trkpt>
      <trkpt lat="46.72318" lon="-1.97054">
        <ele>4</ele>
        <time>2026-02-24T14:22:43Z</time>
      </trkpt>
      <trkpt lat="46.7232" lon="-1.97059">
        <ele>2</ele>
        <time>2026-02-24T14:22:46Z</time>
      </trkpt>
      <trkpt lat="46.72321" lon="-1.97063">
        <ele>1</ele>
        <time>2026-02-24T14:22:49Z</time>
      </trkpt>
      <trkpt lat="46.72323" lon="-1.97068">
        <ele>7.8</ele>
        <time>2026-02-24T14:22:52Z</time>
      </trkpt>
      <trkpt lat="46.72324" lon="-1.97072">
        <ele>7.4</ele>
        <time>2026-02-24T14:22:54Z</time>
      </trkpt>
      <trkpt lat="46.72326" lon="-1.97075">
        <ele>-1</ele>
        <time>2026-02-24T14:22:56Z</time>
      </trkpt>
      <trkpt lat="46.72327" lon="-1.97079">
        <ele>-2</ele>
        <time>2026-02-24T14:22:58Z</time>
      </trkpt>
      <trkpt lat="46.72329" lon="-1.97082">
        <ele>-3</ele>
        <time>2026-02-24T14:23:00Z</time>
      </trkpt>
      <trkpt lat="46.72331" lon="-1.97085">
        <ele>-3</ele>
        <time>2026-02-24T14:23:02Z</time>
      </trkpt>
      <trkpt lat="46.72332" lon="-1.97089">
        <ele>-4</ele>
        <time>2026-02-24T14:23:04Z</time>
      </trkpt>
      <trkpt lat="46.72334" lon="-1.97093">
        <ele>-4</ele>
        <time>2026-02-24T14:23:06Z</time>
      </trkpt>
      <trkpt lat="46.72336" lon="-1.97098">
        <ele>-5</ele>
        <time>2026-02-24T14:23:09Z</time>
      </trkpt>
      <trkpt lat="46.72338" lon="-1.97102">
        <ele>-5</ele>
        <time>2026-02-24T14:23:11Z</time>
      </trkpt>
      <trkpt lat="46.72339" lon="-1.97105">
        <ele>-5</ele>
        <time>2026-02-24T14:23:13Z</time>
      </trkpt>
      <trkpt lat="46.72341" lon="-1.97109">
        <ele>-5</ele>
        <time>2026-02-24T14:23:15Z</time>
      </trkpt>
      <trkpt lat="46.72342" lon="-1.97113">
        <ele>-4</ele>
        <time>2026-02-24T14:23:17Z</time>
      </trkpt>
      <trkpt lat="46.72344" lon="-1.97117">
        <ele>-2</ele>
        <time>2026-02-24T14:23:20Z</time>
      </trkpt>
      <trkpt lat="46.72346" lon="-1.97121">
        <ele>-1</ele>
        <time>2026-02-24T14:23:22Z</time>
      </trkpt>
      <trkpt lat="46.72349" lon="-1.97124">
        <ele>6.9</ele>
        <time>2026-02-24T14:23:25Z</time>
      </trkpt>
      <trkpt lat="46.72351" lon="-1.97128">
        <ele>3</ele>
        <time>2026-02-24T14:23:28Z</time>
      </trkpt>
      <trkpt lat="46.72354" lon="-1.97131">
        <ele>4</ele>
        <time>2026-02-24T14:23:30Z</time>
      </trkpt>
      <trkpt lat="46.72356" lon="-1.97136">
        <ele>6</ele>
        <time>2026-02-24T14:23:32Z</time>
      </trkpt>
      <trkpt lat="46.72359" lon="-1.9714">
        <ele>7</ele>
        <time>2026-02-24T14:23:34Z</time>
      </trkpt>
      <trkpt lat="46.72361" lon="-1.97144">
        <ele>8</ele>
        <time>2026-02-24T14:23:37Z</time>
      </trkpt>
      <trkpt lat="46.72364" lon="-1.97148">
        <ele>8</ele>
        <time>2026-02-24T14:23:40Z</time>
      </trkpt>
      <trkpt lat="46.72366" lon="-1.97152">
        <ele>8</ele>
        <time>2026-02-24T14:23:42Z</time>
      </trkpt>
      <trkpt lat="46.72368" lon="-1.97156">
        <ele>8</ele>
        <time>2026-02-24T14:23:44Z</time>
      </trkpt>
      <trkpt lat="46.7237" lon="-1.9716">
        <ele>7</ele>
        <time>2026-02-24T14:23:46Z</time>
      </trkpt>
      <trkpt lat="46.72372" lon="-1.97163">
        <ele>7</ele>
        <time>2026-02-24T14:23:48Z</time>
      </trkpt>
      <trkpt lat="46.72374" lon="-1.97167">
        <ele>7</ele>
        <time>2026-02-24T14:23:50Z</time>
      </trkpt>
      <trkpt lat="46.72376" lon="-1.97171">
        <ele>7</ele>
        <time>2026-02-24T14:23:52Z</time>
      </trkpt>
      <trkpt lat="46.72378" lon="-1.97175">
        <ele>6</ele>
        <time>2026-02-24T14:23:54Z</time>
      </trkpt>
      <trkpt lat="46.72379" lon="-1.9718">
        <ele>6</ele>
        <time>2026-02-24T14:23:56Z</time>
      </trkpt>
      <trkpt lat="46.72381" lon="-1.97184">
        <ele>6</ele>
        <time>2026-02-24T14:23:58Z</time>
      </trkpt>
      <trkpt lat="46.72383" lon="-1.97188">
        <ele>6</ele>
        <time>2026-02-24T14:24:00Z</time>
      </trkpt>
      <trkpt lat="46.72385" lon="-1.97192">
        <ele>7</ele>
        <time>2026-02-24T14:24:03Z</time>
      </trkpt>
      <trkpt lat="46.72386" lon="-1.97195">
        <ele>7</ele>
        <time>2026-02-24T14:24:05Z</time>
      </trkpt>
      <trkpt lat="46.72387" lon="-1.97199">
        <ele>7</ele>
        <time>2026-02-24T14:24:07Z</time>
      </trkpt>
      <trkpt lat="46.72388" lon="-1.97203">
        <ele>8</ele>
        <time>2026-02-24T14:24:09Z</time>
      </trkpt>
      <trkpt lat="46.7239" lon="-1.97207">
        <ele>8</ele>
        <time>2026-02-24T14:24:12Z</time>
      </trkpt>
      <trkpt lat="46.72392" lon="-1.97212">
        <ele>9</ele>
        <time>2026-02-24T14:24:15Z</time>
      </trkpt>
      <trkpt lat="46.72394" lon="-1.97217">
        <ele>9</ele>
        <time>2026-02-24T14:24:17Z</time>
      </trkpt>
      <trkpt lat="46.72395" lon="-1.97221">
        <ele>10</ele>
        <time>2026-02-24T14:24:19Z</time>
      </trkpt>
      <trkpt lat="46.72397" lon="-1.97224">
        <ele>11</ele>
        <time>2026-02-24T14:24:23Z</time>
      </trkpt>
      <trkpt lat="46.724" lon="-1.97228">
        <ele>12</ele>
        <time>2026-02-24T14:24:26Z</time>
      </trkpt>
      <trkpt lat="46.72402" lon="-1.97232">
        <ele>13</ele>
        <time>2026-02-24T14:24:29Z</time>
      </trkpt>
      <trkpt lat="46.72404" lon="-1.97237">
        <ele>14</ele>
        <time>2026-02-24T14:24:32Z</time>
      </trkpt>
      <trkpt lat="46.72406" lon="-1.97241">
        <ele>14</ele>
        <time>2026-02-24T14:24:34Z</time>
      </trkpt>
      <trkpt lat="46.72408" lon="-1.97246">
        <ele>15</ele>
        <time>2026-02-24T14:24:37Z</time>
      </trkpt>
      <trkpt lat="46.72409" lon="-1.97251">
        <ele>14</ele>
        <time>2026-02-24T14:24:40Z</time>
      </trkpt>
      <trkpt lat="46.72411" lon="-1.97254">
        <ele>13</ele>
        <time>2026-02-24T14:24:42Z</time>
      </trkpt>
      <trkpt lat="46.72413" lon="-1.97258">
        <ele>13</ele>
        <time>2026-02-24T14:24:44Z</time>
      </trkpt>
      <trkpt lat="46.72415" lon="-1.97262">
        <ele>13</ele>
        <time>2026-02-24T14:24:47Z</time>
      </trkpt>
      <trkpt lat="46.72417" lon="-1.97265">
        <ele>12</ele>
        <time>2026-02-24T14:24:49Z</time>
      </trkpt>
      <trkpt lat="46.72419" lon="-1.97269">
        <ele>12</ele>
        <time>2026-02-24T14:24:51Z</time>
      </trkpt>
      <trkpt lat="46.72421" lon="-1.97272">
        <ele>12</ele>
        <time>2026-02-24T14:24:53Z</time>
      </trkpt>
      <trkpt lat="46.72423" lon="-1.97276">
        <ele>11</ele>
        <time>2026-02-24T14:24:55Z</time>
      </trkpt>
      <trkpt lat="46.72425" lon="-1.97279">
        <ele>11</ele>
        <time>2026-02-24T14:24:57Z</time>
      </trkpt>
      <trkpt lat="46.72427" lon="-1.97282">
        <ele>10</ele>
        <time>2026-02-24T14:24:59Z</time>
      </trkpt>
      <trkpt lat="46.7243" lon="-1.97287">
        <ele>10</ele>
        <time>2026-02-24T14:25:01Z</time>
      </trkpt>
      <trkpt lat="46.72432" lon="-1.97291">
        <ele>9</ele>
        <time>2026-02-24T14:25:03Z</time>
      </trkpt>
      <trkpt lat="46.72434" lon="-1.97296">
        <ele>9</ele>
        <time>2026-02-24T14:25:06Z</time>
      </trkpt>
      <trkpt lat="46.72436" lon="-1.97301">
        <ele>8</ele>
        <time>2026-02-24T14:25:09Z</time>
      </trkpt>
      <trkpt lat="46.72438" lon="-1.97306">
        <ele>8</ele>
        <time>2026-02-24T14:25:11Z</time>
      </trkpt>
      <trkpt lat="46.72439" lon="-1.9731">
        <ele>8</ele>
        <time>2026-02-24T14:25:13Z</time>
      </trkpt>
      <trkpt lat="46.72441" lon="-1.97314">
        <ele>9</ele>
        <time>2026-02-24T14:25:16Z</time>
      </trkpt>
      <trkpt lat="46.72443" lon="-1.97317">
        <ele>9</ele>
        <time>2026-02-24T14:25:18Z</time>
      </trkpt>
      <trkpt lat="46.72446" lon="-1.97321">
        <ele>10</ele>
        <time>2026-02-24T14:25:21Z</time>
      </trkpt>
      <trkpt lat="46.72447" lon="-1.97325">
        <ele>9</ele>
        <time>2026-02-24T14:25:24Z</time>
      </trkpt>
      <trkpt lat="46.72449" lon="-1.9733">
        <ele>9</ele>
        <time>2026-02-24T14:25:27Z</time>
      </trkpt>
      <trkpt lat="46.72451" lon="-1.97334">
        <ele>9</ele>
        <time>2026-02-24T14:25:29Z</time>
      </trkpt>
      <trkpt lat="46.72453" lon="-1.97338">
        <ele>9</ele>
        <time>2026-02-24T14:25:32Z</time>
      </trkpt>
      <trkpt lat="46.72455" lon="-1.97342">
        <ele>9</ele>
        <time>2026-02-24T14:25:34Z</time>
      </trkpt>
      <trkpt lat="46.72457" lon="-1.97346">
        <ele>9</ele>
        <time>2026-02-24T14:25:36Z</time>
      </trkpt>
      <trkpt lat="46.72459" lon="-1.97349">
        <ele>9</ele>
        <time>2026-02-24T14:25:38Z</time>
      </trkpt>
      <trkpt lat="46.72461" lon="-1.97354">
        <ele>9</ele>
        <time>2026-02-24T14:25:41Z</time>
      </trkpt>
      <trkpt lat="46.72463" lon="-1.97358">
        <ele>9</ele>
        <time>2026-02-24T14:25:43Z</time>
      </trkpt>
      <trkpt lat="46.72465" lon="-1.97362">
        <ele>9</ele>
        <time>2026-02-24T14:25:45Z</time>
      </trkpt>
      <trkpt lat="46.72467" lon="-1.97366">
        <ele>9</ele>
        <time>2026-02-24T14:25:47Z</time>
      </trkpt>
      <trkpt lat="46.72468" lon="-1.9737">
        <ele>8</ele>
        <time>2026-02-24T14:25:49Z</time>
      </trkpt>
      <trkpt lat="46.7247" lon="-1.97373">
        <ele>8</ele>
        <time>2026-02-24T14:25:51Z</time>
      </trkpt>
      <trkpt lat="46.72472" lon="-1.97377">
        <ele>8</ele>
        <time>2026-02-24T14:25:53Z</time>
      </trkpt>
      <trkpt lat="46.72474" lon="-1.9738">
        <ele>7</ele>
        <time>2026-02-24T14:25:55Z</time>
      </trkpt>
      <trkpt lat="46.72475" lon="-1.97383">
        <ele>7</ele>
        <time>2026-02-24T14:25:57Z</time>
      </trkpt>
      <trkpt lat="46.72477" lon="-1.97387">
        <ele>7</ele>
        <time>2026-02-24T14:25:59Z</time>
      </trkpt>
      <trkpt lat="46.72479" lon="-1.9739">
        <ele>6</ele>
        <time>2026-02-24T14:26:01Z</time>
      </trkpt>
      <trkpt lat="46.72482" lon="-1.97393">
        <ele>6</ele>
        <time>2026-02-24T14:26:03Z</time>
      </trkpt>
      <trkpt lat="46.72484" lon="-1.97397">
        <ele>6</ele>
        <time>2026-02-24T14:26:05Z</time>
      </trkpt>
      <trkpt lat="46.72486" lon="-1.97401">
        <ele>5</ele>
        <time>2026-02-24T14:26:07Z</time>
      </trkpt>
      <trkpt lat="46.72488" lon="-1.97404">
        <ele>5</ele>
        <time>2026-02-24T14:26:09Z</time>
      </trkpt>
      <trkpt lat="46.7249" lon="-1.97407">
        <ele>5</ele>
        <time>2026-02-24T14:26:12Z</time>
      </trkpt>
      <trkpt lat="46.72492" lon="-1.97411">
        <ele>4</ele>
        <time>2026-02-24T14:26:15Z</time>
      </trkpt>
      <trkpt lat="46.72494" lon="-1.97415">
        <ele>5</ele>
        <time>2026-02-24T14:26:18Z</time>
      </trkpt>
      <trkpt lat="46.72497" lon="-1.97416">
        <ele>5</ele>
        <time>2026-02-24T14:26:22Z</time>
      </trkpt>
      <trkpt lat="46.725" lon="-1.97418">
        <ele>6</ele>
        <time>2026-02-24T14:26:25Z</time>
      </trkpt>
      <trkpt lat="46.72503" lon="-1.97419">
        <ele>7</ele>
        <time>2026-02-24T14:26:28Z</time>
      </trkpt>
      <trkpt lat="46.72506" lon="-1.97421">
        <ele>8</ele>
        <time>2026-02-24T14:26:31Z</time>
      </trkpt>
      <trkpt lat="46.72509" lon="-1.97422">
        <ele>10</ele>
        <time>2026-02-24T14:26:34Z</time>
      </trkpt>
      <trkpt lat="46.72512" lon="-1.97423">
        <ele>11</ele>
        <time>2026-02-24T14:26:36Z</time>
      </trkpt>
      <trkpt lat="46.72515" lon="-1.97425">
        <ele>12</ele>
        <time>2026-02-24T14:26:39Z</time>
      </trkpt>
      <trkpt lat="46.72518" lon="-1.97427">
        <ele>13</ele>
        <time>2026-02-24T14:26:43Z</time>
      </trkpt>
      <trkpt lat="46.72521" lon="-1.97429">
        <ele>14</ele>
        <time>2026-02-24T14:26:45Z</time>
      </trkpt>
      <trkpt lat="46.72524" lon="-1.97432">
        <ele>15</ele>
        <time>2026-02-24T14:26:48Z</time>
      </trkpt>
      <trkpt lat="46.72527" lon="-1.97434">
        <ele>15</ele>
        <time>2026-02-24T14:26:50Z</time>
      </trkpt>
      <trkpt lat="46.72531" lon="-1.97436">
        <ele>15</ele>
        <time>2026-02-24T14:26:52Z</time>
      </trkpt>
      <trkpt lat="46.72534" lon="-1.97438">
        <ele>15</ele>
        <time>2026-02-24T14:26:54Z</time>
      </trkpt>
      <trkpt lat="46.72538" lon="-1.97441">
        <ele>15</ele>
        <time>2026-02-24T14:26:56Z</time>
      </trkpt>
      <trkpt lat="46.72541" lon="-1.97442">
        <ele>15</ele>
        <time>2026-02-24T14:26:58Z</time>
      </trkpt>
      <trkpt lat="46.72544" lon="-1.97442">
        <ele>15</ele>
        <time>2026-02-24T14:27:01Z</time>
      </trkpt>
      <trkpt lat="46.72547" lon="-1.97443">
        <ele>14</ele>
        <time>2026-02-24T14:27:08Z</time>
      </trkpt>
      <trkpt lat="46.7255" lon="-1.97444">
        <ele>14</ele>
        <time>2026-02-24T14:27:12Z</time>
      </trkpt>
      <trkpt lat="46.72553" lon="-1.97445">
        <ele>14</ele>
        <time>2026-02-24T14:27:15Z</time>
      </trkpt>
      <trkpt lat="46.72556" lon="-1.97447">
        <ele>14</ele>
        <time>2026-02-24T14:27:18Z</time>
      </trkpt>
      <trkpt lat="46.7256" lon="-1.97448">
        <ele>14</ele>
        <time>2026-02-24T14:27:21Z</time>
      </trkpt>
      <trkpt lat="46.72563" lon="-1.9745">
        <ele>15</ele>
        <time>2026-02-24T14:27:24Z</time>
      </trkpt>
      <trkpt lat="46.72565" lon="-1.97452">
        <ele>16</ele>
        <time>2026-02-24T14:27:27Z</time>
      </trkpt>
      <trkpt lat="46.72569" lon="-1.97454">
        <ele>18</ele>
        <time>2026-02-24T14:27:31Z</time>
      </trkpt>
      <trkpt lat="46.72572" lon="-1.97454">
        <ele>19</ele>
        <time>2026-02-24T14:27:34Z</time>
      </trkpt>
      <trkpt lat="46.72575" lon="-1.97456">
        <ele>20</ele>
        <time>2026-02-24T14:27:36Z</time>
      </trkpt>
      <trkpt lat="46.72578" lon="-1.97458">
        <ele>21</ele>
        <time>2026-02-24T14:27:38Z</time>
      </trkpt>
      <trkpt lat="46.7258" lon="-1.9746">
        <ele>21</ele>
        <time>2026-02-24T14:27:40Z</time>
      </trkpt>
      <trkpt lat="46.72582" lon="-1.97464">
        <ele>21</ele>
        <time>2026-02-24T14:27:42Z</time>
      </trkpt>
      <trkpt lat="46.72585" lon="-1.97467">
        <ele>22</ele>
        <time>2026-02-24T14:27:45Z</time>
      </trkpt>
      <trkpt lat="46.72588" lon="-1.9747">
        <ele>22</ele>
        <time>2026-02-24T14:27:48Z</time>
      </trkpt>
      <trkpt lat="46.72591" lon="-1.97473">
        <ele>21</ele>
        <time>2026-02-24T14:27:51Z</time>
      </trkpt>
      <trkpt lat="46.72594" lon="-1.97475">
        <ele>20</ele>
        <time>2026-02-24T14:27:54Z</time>
      </trkpt>
      <trkpt lat="46.72598" lon="-1.97474">
        <ele>20</ele>
        <time>2026-02-24T14:27:57Z</time>
      </trkpt>
      <trkpt lat="46.72601" lon="-1.97475">
        <ele>20</ele>
        <time>2026-02-24T14:28:00Z</time>
      </trkpt>
      <trkpt lat="46.72604" lon="-1.97476">
        <ele>20</ele>
        <time>2026-02-24T14:28:02Z</time>
      </trkpt>
      <trkpt lat="46.72607" lon="-1.97477">
        <ele>21</ele>
        <time>2026-02-24T14:28:04Z</time>
      </trkpt>
      <trkpt lat="46.7261" lon="-1.97478">
        <ele>21</ele>
        <time>2026-02-24T14:28:06Z</time>
      </trkpt>
      <trkpt lat="46.72613" lon="-1.9748">
        <ele>21</ele>
        <time>2026-02-24T14:28:08Z</time>
      </trkpt>
      <trkpt lat="46.72616" lon="-1.97482">
        <ele>21</ele>
        <time>2026-02-24T14:28:10Z</time>
      </trkpt>
      <trkpt lat="46.72619" lon="-1.97485">
        <ele>21</ele>
        <time>2026-02-24T14:28:13Z</time>
      </trkpt>
      <trkpt lat="46.72622" lon="-1.97488">
        <ele>21</ele>
        <time>2026-02-24T14:28:16Z</time>
      </trkpt>
      <trkpt lat="46.72625" lon="-1.97491">
        <ele>22</ele>
        <time>2026-02-24T14:28:18Z</time>
      </trkpt>
      <trkpt lat="46.72628" lon="-1.97492">
        <ele>22</ele>
        <time>2026-02-24T14:28:20Z</time>
      </trkpt>
      <trkpt lat="46.72632" lon="-1.97493">
        <ele>23</ele>
        <time>2026-02-24T14:28:23Z</time>
      </trkpt>
      <trkpt lat="46.72635" lon="-1.97494">
        <ele>23</ele>
        <time>2026-02-24T14:28:25Z</time>
      </trkpt>
      <trkpt lat="46.72637" lon="-1.97496">
        <ele>23</ele>
        <time>2026-02-24T14:28:27Z</time>
      </trkpt>
      <trkpt lat="46.72641" lon="-1.97499">
        <ele>24</ele>
        <time>2026-02-24T14:28:30Z</time>
      </trkpt>
      <trkpt lat="46.72645" lon="-1.97501">
        <ele>24</ele>
        <time>2026-02-24T14:28:33Z</time>
      </trkpt>
      <trkpt lat="46.72648" lon="-1.97502">
        <ele>24</ele>
        <time>2026-02-24T14:28:35Z</time>
      </trkpt>
      <trkpt lat="46.72651" lon="-1.97505">
        <ele>24</ele>
        <time>2026-02-24T14:28:37Z</time>
      </trkpt>
      <trkpt lat="46.72654" lon="-1.97508">
        <ele>24</ele>
        <time>2026-02-24T14:28:39Z</time>
      </trkpt>
      <trkpt lat="46.72657" lon="-1.97511">
        <ele>24</ele>
        <time>2026-02-24T14:28:41Z</time>
      </trkpt>
      <trkpt lat="46.7266" lon="-1.97514">
        <ele>24</ele>
        <time>2026-02-24T14:28:43Z</time>
      </trkpt>
      <trkpt lat="46.72663" lon="-1.97516">
        <ele>23</ele>
        <time>2026-02-24T14:28:46Z</time>
      </trkpt>
      <trkpt lat="46.72665" lon="-1.97519">
        <ele>22</ele>
        <time>2026-02-24T14:28:48Z</time>
      </trkpt>
      <trkpt lat="46.72668" lon="-1.97521">
        <ele>22</ele>
        <time>2026-02-24T14:28:50Z</time>
      </trkpt>
      <trkpt lat="46.72671" lon="-1.97523">
        <ele>21</ele>
        <time>2026-02-24T14:28:52Z</time>
      </trkpt>
      <trkpt lat="46.72674" lon="-1.97526">
        <ele>20</ele>
        <time>2026-02-24T14:28:55Z</time>
      </trkpt>
      <trkpt lat="46.72677" lon="-1.97528">
        <ele>19</ele>
        <time>2026-02-24T14:28:57Z</time>
      </trkpt>
      <trkpt lat="46.7268" lon="-1.97529">
        <ele>18</ele>
        <time>2026-02-24T14:29:00Z</time>
      </trkpt>
      <trkpt lat="46.72683" lon="-1.97531">
        <ele>16</ele>
        <time>2026-02-24T14:29:03Z</time>
      </trkpt>
      <trkpt lat="46.72685" lon="-1.97534">
        <ele>15</ele>
        <time>2026-02-24T14:29:06Z</time>
      </trkpt>
      <trkpt lat="46.72686" lon="-1.97538">
        <ele>14</ele>
        <time>2026-02-24T14:29:09Z</time>
      </trkpt>
      <trkpt lat="46.72687" lon="-1.97543">
        <ele>13</ele>
        <time>2026-02-24T14:29:13Z</time>
      </trkpt>
      <trkpt lat="46.72686" lon="-1.97542">
        <ele>12</ele>
        <time>2026-02-24T14:29:18Z</time>
      </trkpt>
      <trkpt lat="46.72685" lon="-1.97546">
        <ele>10</ele>
        <time>2026-02-24T14:29:56Z</time>
      </trkpt>
      <trkpt lat="46.72687" lon="-1.97543">
        <ele>9</ele>
        <time>2026-02-24T14:30:54Z</time>
      </trkpt>
      <trkpt lat="46.7269" lon="-1.97541">
        <ele>9</ele>
        <time>2026-02-24T14:31:01Z</time>
      </trkpt>
      <trkpt lat="46.72692" lon="-1.97541">
        <ele>9</ele>
        <time>2026-02-24T14:31:04Z</time>
      </trkpt>
      <trkpt lat="46.72695" lon="-1.97543">
        <ele>8</ele>
        <time>2026-02-24T14:31:07Z</time>
      </trkpt>
      <trkpt lat="46.72698" lon="-1.97545">
        <ele>8</ele>
        <time>2026-02-24T14:31:10Z</time>
      </trkpt>
      <trkpt lat="46.72701" lon="-1.97547">
        <ele>8</ele>
        <time>2026-02-24T14:31:13Z</time>
      </trkpt>
      <trkpt lat="46.72704" lon="-1.9755">
        <ele>8</ele>
        <time>2026-02-24T14:31:16Z</time>
      </trkpt>
      <trkpt lat="46.72707" lon="-1.97553">
        <ele>8</ele>
        <time>2026-02-24T14:31:19Z</time>
      </trkpt>
      <trkpt lat="46.7271" lon="-1.97556">
        <ele>8</ele>
        <time>2026-02-24T14:31:21Z</time>
      </trkpt>
      <trkpt lat="46.72713" lon="-1.97559">
        <ele>8</ele>
        <time>2026-02-24T14:31:23Z</time>
      </trkpt>
      <trkpt lat="46.72716" lon="-1.97562">
        <ele>7</ele>
        <time>2026-02-24T14:31:26Z</time>
      </trkpt>
      <trkpt lat="46.72718" lon="-1.97566">
        <ele>7</ele>
        <time>2026-02-24T14:31:28Z</time>
      </trkpt>
      <trkpt lat="46.7272" lon="-1.97569">
        <ele>6</ele>
        <time>2026-02-24T14:31:30Z</time>
      </trkpt>
      <trkpt lat="46.72723" lon="-1.97572">
        <ele>5</ele>
        <time>2026-02-24T14:31:33Z</time>
      </trkpt>
      <trkpt lat="46.72725" lon="-1.97575">
        <ele>4</ele>
        <time>2026-02-24T14:31:36Z</time>
      </trkpt>
      <trkpt lat="46.72728" lon="-1.97578">
        <ele>4</ele>
        <time>2026-02-24T14:31:38Z</time>
      </trkpt>
      <trkpt lat="46.72731" lon="-1.97581">
        <ele>3</ele>
        <time>2026-02-24T14:31:40Z</time>
      </trkpt>
      <trkpt lat="46.72734" lon="-1.97584">
        <ele>2</ele>
        <time>2026-02-24T14:31:42Z</time>
      </trkpt>
      <trkpt lat="46.72737" lon="-1.97587">
        <ele>1</ele>
        <time>2026-02-24T14:31:44Z</time>
      </trkpt>
      <trkpt lat="46.7274" lon="-1.97589">
        <ele>1</ele>
        <time>2026-02-24T14:31:46Z</time>
      </trkpt>
      <trkpt lat="46.72742" lon="-1.97593">
        <ele>6.2</ele>
        <time>2026-02-24T14:31:49Z</time>
      </trkpt>
      <trkpt lat="46.72744" lon="-1.97597">
        <ele>6.2</ele>
        <time>2026-02-24T14:31:52Z</time>
      </trkpt>
      <trkpt lat="46.72746" lon="-1.976">
        <ele>6.2</ele>
        <time>2026-02-24T14:31:54Z</time>
      </trkpt>
      <trkpt lat="46.72748" lon="-1.97604">
        <ele>6.2</ele>
        <time>2026-02-24T14:31:56Z</time>
      </trkpt>
      <trkpt lat="46.72751" lon="-1.97608">
        <ele>6.1</ele>
        <time>2026-02-24T14:31:58Z</time>
      </trkpt>
      <trkpt lat="46.72755" lon="-1.97613">
        <ele>5.8</ele>
        <time>2026-02-24T14:32:00Z</time>
      </trkpt>
      <trkpt lat="46.72758" lon="-1.97616">
        <ele>1</ele>
        <time>2026-02-24T14:32:02Z</time>
      </trkpt>
      <trkpt lat="46.72761" lon="-1.97619">
        <ele>1</ele>
        <time>2026-02-24T14:32:04Z</time>
      </trkpt>
      <trkpt lat="46.72763" lon="-1.97622">
        <ele>2</ele>
        <time>2026-02-24T14:32:06Z</time>
      </trkpt>
      <trkpt lat="46.72766" lon="-1.97624">
        <ele>3</ele>
        <time>2026-02-24T14:32:09Z</time>
      </trkpt>
      <trkpt lat="46.72768" lon="-1.97627">
        <ele>4</ele>
        <time>2026-02-24T14:32:16Z</time>
      </trkpt>
      <trkpt lat="46.7277" lon="-1.97631">
        <ele>4</ele>
        <time>2026-02-24T14:32:19Z</time>
      </trkpt>
      <trkpt lat="46.72773" lon="-1.97635">
        <ele>4</ele>
        <time>2026-02-24T14:32:22Z</time>
      </trkpt>
      <trkpt lat="46.72775" lon="-1.97638">
        <ele>4</ele>
        <time>2026-02-24T14:32:24Z</time>
      </trkpt>
      <trkpt lat="46.72777" lon="-1.97641">
        <ele>3</ele>
        <time>2026-02-24T14:32:27Z</time>
      </trkpt>
      <trkpt lat="46.72779" lon="-1.97645">
        <ele>3</ele>
        <time>2026-02-24T14:32:30Z</time>
      </trkpt>
      <trkpt lat="46.72781" lon="-1.97648">
        <ele>2</ele>
        <time>2026-02-24T14:32:32Z</time>
      </trkpt>
      <trkpt lat="46.72783" lon="-1.97652">
        <ele>1</ele>
        <time>2026-02-24T14:32:36Z</time>
      </trkpt>
      <trkpt lat="46.72786" lon="-1.97655">
        <ele>5</ele>
        <time>2026-02-24T14:32:39Z</time>
      </trkpt>
      <trkpt lat="46.72789" lon="-1.97658">
        <ele>5</ele>
        <time>2026-02-24T14:32:41Z</time>
      </trkpt>
      <trkpt lat="46.72792" lon="-1.9766">
        <ele>5</ele>
        <time>2026-02-24T14:32:43Z</time>
      </trkpt>
      <trkpt lat="46.72794" lon="-1.97663">
        <ele>-1</ele>
        <time>2026-02-24T14:32:45Z</time>
      </trkpt>
      <trkpt lat="46.72797" lon="-1.97666">
        <ele>-1</ele>
        <time>2026-02-24T14:32:47Z</time>
      </trkpt>
      <trkpt lat="46.728" lon="-1.9767">
        <ele>-1</ele>
        <time>2026-02-24T14:32:49Z</time>
      </trkpt>
      <trkpt lat="46.72802" lon="-1.97674">
        <ele>-2</ele>
        <time>2026-02-24T14:32:51Z</time>
      </trkpt>
      <trkpt lat="46.72805" lon="-1.97677">
        <ele>-2</ele>
        <time>2026-02-24T14:32:53Z</time>
      </trkpt>
      <trkpt lat="46.72808" lon="-1.9768">
        <ele>-2</ele>
        <time>2026-02-24T14:32:56Z</time>
      </trkpt>
      <trkpt lat="46.72811" lon="-1.97683">
        <ele>-2</ele>
        <time>2026-02-24T14:32:58Z</time>
      </trkpt>
      <trkpt lat="46.72813" lon="-1.97686">
        <ele>-2</ele>
        <time>2026-02-24T14:33:01Z</time>
      </trkpt>
      <trkpt lat="46.72816" lon="-1.97689">
        <ele>-2</ele>
        <time>2026-02-24T14:33:03Z</time>
      </trkpt>
      <trkpt lat="46.72819" lon="-1.97691">
        <ele>-2</ele>
        <time>2026-02-24T14:33:05Z</time>
      </trkpt>
      <trkpt lat="46.72822" lon="-1.97693">
        <ele>-1</ele>
        <time>2026-02-24T14:33:07Z</time>
      </trkpt>
      <trkpt lat="46.72825" lon="-1.97695">
        <ele>3.6</ele>
        <time>2026-02-24T14:33:09Z</time>
      </trkpt>
      <trkpt lat="46.72827" lon="-1.97698">
        <ele>3.7</ele>
        <time>2026-02-24T14:33:11Z</time>
      </trkpt>
      <trkpt lat="46.7283" lon="-1.977">
        <ele>1</ele>
        <time>2026-02-24T14:33:13Z</time>
      </trkpt>
      <trkpt lat="46.72833" lon="-1.97703">
        <ele>2</ele>
        <time>2026-02-24T14:33:15Z</time>
      </trkpt>
      <trkpt lat="46.72836" lon="-1.97707">
        <ele>2</ele>
        <time>2026-02-24T14:33:17Z</time>
      </trkpt>
      <trkpt lat="46.72838" lon="-1.97711">
        <ele>3</ele>
        <time>2026-02-24T14:33:19Z</time>
      </trkpt>
      <trkpt lat="46.7284" lon="-1.97715">
        <ele>3</ele>
        <time>2026-02-24T14:33:22Z</time>
      </trkpt>
      <trkpt lat="46.72843" lon="-1.9772">
        <ele>3</ele>
        <time>2026-02-24T14:33:25Z</time>
      </trkpt>
      <trkpt lat="46.72845" lon="-1.97724">
        <ele>3</ele>
        <time>2026-02-24T14:33:28Z</time>
      </trkpt>
      <trkpt lat="46.72846" lon="-1.97728">
        <ele>2</ele>
        <time>2026-02-24T14:33:30Z</time>
      </trkpt>
      <trkpt lat="46.72848" lon="-1.97732">
        <ele>1</ele>
        <time>2026-02-24T14:33:32Z</time>
      </trkpt>
      <trkpt lat="46.7285" lon="-1.97735">
        <ele>1</ele>
        <time>2026-02-24T14:33:34Z</time>
      </trkpt>
      <trkpt lat="46.72853" lon="-1.97738">
        <ele>5</ele>
        <time>2026-02-24T14:33:36Z</time>
      </trkpt>
      <trkpt lat="46.72854" lon="-1.97741">
        <ele>5</ele>
        <time>2026-02-24T14:33:38Z</time>
      </trkpt>
      <trkpt lat="46.72857" lon="-1.97744">
        <ele>5</ele>
        <time>2026-02-24T14:33:40Z</time>
      </trkpt>
      <trkpt lat="46.72859" lon="-1.97747">
        <ele>5</ele>
        <time>2026-02-24T14:33:43Z</time>
      </trkpt>
      <trkpt lat="46.72862" lon="-1.9775">
        <ele>-1</ele>
        <time>2026-02-24T14:33:46Z</time>
      </trkpt>
      <trkpt lat="46.72864" lon="-1.97753">
        <ele>-1</ele>
        <time>2026-02-24T14:33:48Z</time>
      </trkpt>
      <trkpt lat="46.72867" lon="-1.97757">
        <ele>-1</ele>
        <time>2026-02-24T14:33:50Z</time>
      </trkpt>
      <trkpt lat="46.72869" lon="-1.9776">
        <ele>-1</ele>
        <time>2026-02-24T14:33:52Z</time>
      </trkpt>
      <trkpt lat="46.72872" lon="-1.97763">
        <ele>-1</ele>
        <time>2026-02-24T14:33:55Z</time>
      </trkpt>
      <trkpt lat="46.72874" lon="-1.97765">
        <ele>-1</ele>
        <time>2026-02-24T14:33:57Z</time>
      </trkpt>
      <trkpt lat="46.72876" lon="-1.97768">
        <ele>-1</ele>
        <time>2026-02-24T14:33:59Z</time>
      </trkpt>
      <trkpt lat="46.72878" lon="-1.97771">
        <ele>-1</ele>
        <time>2026-02-24T14:34:01Z</time>
      </trkpt>
      <trkpt lat="46.7288" lon="-1.97774">
        <ele>-1</ele>
        <time>2026-02-24T14:34:03Z</time>
      </trkpt>
      <trkpt lat="46.72882" lon="-1.97778">
        <ele>-1</ele>
        <time>2026-02-24T14:34:05Z</time>
      </trkpt>
      <trkpt lat="46.72884" lon="-1.97781">
        <ele>-1</ele>
        <time>2026-02-24T14:34:07Z</time>
      </trkpt>
      <trkpt lat="46.72887" lon="-1.97784">
        <ele>-1</ele>
        <time>2026-02-24T14:34:10Z</time>
      </trkpt>
      <trkpt lat="46.72889" lon="-1.97787">
        <ele>-1</ele>
        <time>2026-02-24T14:34:12Z</time>
      </trkpt>
      <trkpt lat="46.72891" lon="-1.9779">
        <ele>5.5</ele>
        <time>2026-02-24T14:34:14Z</time>
      </trkpt>
      <trkpt lat="46.72894" lon="-1.97792">
        <ele>6.1</ele>
        <time>2026-02-24T14:34:17Z</time>
      </trkpt>
      <trkpt lat="46.72897" lon="-1.97795">
        <ele>2</ele>
        <time>2026-02-24T14:34:19Z</time>
      </trkpt>
      <trkpt lat="46.729" lon="-1.97798">
        <ele>3</ele>
        <time>2026-02-24T14:34:21Z</time>
      </trkpt>
      <trkpt lat="46.72902" lon="-1.978">
        <ele>5</ele>
        <time>2026-02-24T14:34:24Z</time>
      </trkpt>
      <trkpt lat="46.72905" lon="-1.97803">
        <ele>7</ele>
        <time>2026-02-24T14:34:27Z</time>
      </trkpt>
      <trkpt lat="46.72907" lon="-1.97806">
        <ele>8</ele>
        <time>2026-02-24T14:34:30Z</time>
      </trkpt>
      <trkpt lat="46.72909" lon="-1.9781">
        <ele>9</ele>
        <time>2026-02-24T14:34:33Z</time>
      </trkpt>
      <trkpt lat="46.72912" lon="-1.97813">
        <ele>9</ele>
        <time>2026-02-24T14:34:35Z</time>
      </trkpt>
      <trkpt lat="46.72914" lon="-1.97817">
        <ele>9</ele>
        <time>2026-02-24T14:34:37Z</time>
      </trkpt>
      <trkpt lat="46.72916" lon="-1.97822">
        <ele>9</ele>
        <time>2026-02-24T14:34:39Z</time>
      </trkpt>
      <trkpt lat="46.72917" lon="-1.97826">
        <ele>9</ele>
        <time>2026-02-24T14:34:41Z</time>
      </trkpt>
      <trkpt lat="46.72919" lon="-1.97833">
        <ele>7</ele>
        <time>2026-02-24T14:34:43Z</time>
      </trkpt>
      <trkpt lat="46.72919" lon="-1.97836">
        <ele>6</ele>
        <time>2026-02-24T14:34:45Z</time>
      </trkpt>
      <trkpt lat="46.72919" lon="-1.97839">
        <ele>4</ele>
        <time>2026-02-24T14:34:54Z</time>
      </trkpt>
      <trkpt lat="46.7292" lon="-1.97843">
        <ele>2</ele>
        <time>2026-02-24T14:35:02Z</time>
      </trkpt>
      <trkpt lat="46.72919" lon="-1.97841">
        <ele>2</ele>
        <time>2026-02-24T14:35:16Z</time>
      </trkpt>
      <trkpt lat="46.72918" lon="-1.97839">
        <ele>2</ele>
        <time>2026-02-24T14:35:19Z</time>
      </trkpt>
      <trkpt lat="46.72917" lon="-1.97839">
        <ele>4</ele>
        <time>2026-02-24T14:35:28Z</time>
      </trkpt>
      <trkpt lat="46.72918" lon="-1.9784">
        <ele>5</ele>
        <time>2026-02-24T14:35:34Z</time>
      </trkpt>
      <trkpt lat="46.7292" lon="-1.97842">
        <ele>5</ele>
        <time>2026-02-24T14:35:38Z</time>
      </trkpt>
      <trkpt lat="46.72922" lon="-1.9784">
        <ele>5</ele>
        <time>2026-02-24T14:35:44Z</time>
      </trkpt>
      <trkpt lat="46.72922" lon="-1.97836">
        <ele>3</ele>
        <time>2026-02-24T14:35:48Z</time>
      </trkpt>
      <trkpt lat="46.72924" lon="-1.97833">
        <ele>2</ele>
        <time>2026-02-24T14:35:52Z</time>
      </trkpt>
      <trkpt lat="46.72925" lon="-1.9783">
        <ele>6</ele>
        <time>2026-02-24T14:35:56Z</time>
      </trkpt>
      <trkpt lat="46.72925" lon="-1.97826">
        <ele>6.4</ele>
        <time>2026-02-24T14:35:59Z</time>
      </trkpt>
      <trkpt lat="46.72925" lon="-1.97821">
        <ele>-1</ele>
        <time>2026-02-24T14:36:02Z</time>
      </trkpt>
      <trkpt lat="46.72923" lon="-1.97817">
        <ele>-2</ele>
        <time>2026-02-24T14:36:05Z</time>
      </trkpt>
      <trkpt lat="46.72922" lon="-1.97812">
        <ele>-3</ele>
        <time>2026-02-24T14:36:08Z</time>
      </trkpt>
      <trkpt lat="46.72921" lon="-1.97808">
        <ele>-4</ele>
        <time>2026-02-24T14:36:10Z</time>
      </trkpt>
      <trkpt lat="46.7292" lon="-1.97803">
        <ele>-4</ele>
        <time>2026-02-24T14:36:12Z</time>
      </trkpt>
      <trkpt lat="46.72919" lon="-1.97798">
        <ele>-4</ele>
        <time>2026-02-24T14:36:16Z</time>
      </trkpt>
      <trkpt lat="46.72919" lon="-1.97794">
        <ele>-4</ele>
        <time>2026-02-24T14:36:19Z</time>
      </trkpt>
      <trkpt lat="46.72919" lon="-1.97789">
        <ele>-5</ele>
        <time>2026-02-24T14:36:24Z</time>
      </trkpt>
      <trkpt lat="46.7292" lon="-1.97784">
        <ele>-5</ele>
        <time>2026-02-24T14:36:27Z</time>
      </trkpt>
      <trkpt lat="46.7292" lon="-1.97779">
        <ele>-5</ele>
        <time>2026-02-24T14:36:30Z</time>
      </trkpt>
      <trkpt lat="46.7292" lon="-1.97774">
        <ele>-5</ele>
        <time>2026-02-24T14:36:33Z</time>
      </trkpt>
      <trkpt lat="46.7292" lon="-1.97769">
        <ele>-5</ele>
        <time>2026-02-24T14:36:35Z</time>
      </trkpt>
      <trkpt lat="46.72921" lon="-1.97765">
        <ele>-5</ele>
        <time>2026-02-24T14:36:38Z</time>
      </trkpt>
      <trkpt lat="46.72921" lon="-1.9776">
        <ele>-6</ele>
        <time>2026-02-24T14:36:41Z</time>
      </trkpt>
      <trkpt lat="46.7292" lon="-1.97755">
        <ele>-5</ele>
        <time>2026-02-24T14:36:44Z</time>
      </trkpt>
      <trkpt lat="46.7292" lon="-1.97749">
        <ele>-5</ele>
        <time>2026-02-24T14:36:46Z</time>
      </trkpt>
      <trkpt lat="46.7292" lon="-1.97745">
        <ele>-4</ele>
        <time>2026-02-24T14:36:48Z</time>
      </trkpt>
      <trkpt lat="46.72918" lon="-1.97741">
        <ele>-4</ele>
        <time>2026-02-24T14:36:51Z</time>
      </trkpt>
      <trkpt lat="46.72916" lon="-1.97737">
        <ele>-3</ele>
        <time>2026-02-24T14:36:54Z</time>
      </trkpt>
      <trkpt lat="46.72914" lon="-1.97733">
        <ele>-1</ele>
        <time>2026-02-24T14:36:58Z</time>
      </trkpt>
      <trkpt lat="46.72913" lon="-1.97729">
        <ele>11.4</ele>
        <time>2026-02-24T14:37:01Z</time>
      </trkpt>
      <trkpt lat="46.72912" lon="-1.97725">
        <ele>1</ele>
        <time>2026-02-24T14:37:04Z</time>
      </trkpt>
      <trkpt lat="46.72912" lon="-1.97719">
        <ele>2</ele>
        <time>2026-02-24T14:37:07Z</time>
      </trkpt>
      <trkpt lat="46.72912" lon="-1.97714">
        <ele>3</ele>
        <time>2026-02-24T14:37:10Z</time>
      </trkpt>
      <trkpt lat="46.72912" lon="-1.97709">
        <ele>4</ele>
        <time>2026-02-24T14:37:14Z</time>
      </trkpt>
      <trkpt lat="46.72912" lon="-1.97702">
        <ele>5</ele>
        <time>2026-02-24T14:37:16Z</time>
      </trkpt>
      <trkpt lat="46.72913" lon="-1.97697">
        <ele>5</ele>
        <time>2026-02-24T14:37:18Z</time>
      </trkpt>
      <trkpt lat="46.72914" lon="-1.97692">
        <ele>6</ele>
        <time>2026-02-24T14:37:20Z</time>
      </trkpt>
      <trkpt lat="46.72916" lon="-1.97688">
        <ele>7</ele>
        <time>2026-02-24T14:37:22Z</time>
      </trkpt>
      <trkpt lat="46.72917" lon="-1.97684">
        <ele>7</ele>
        <time>2026-02-24T14:37:24Z</time>
      </trkpt>
      <trkpt lat="46.72918" lon="-1.9768">
        <ele>8</ele>
        <time>2026-02-24T14:37:26Z</time>
      </trkpt>
      <trkpt lat="46.72919" lon="-1.97676">
        <ele>9</ele>
        <time>2026-02-24T14:37:30Z</time>
      </trkpt>
      <trkpt lat="46.72918" lon="-1.97673">
        <ele>9</ele>
        <time>2026-02-24T14:37:34Z</time>
      </trkpt>
      <trkpt lat="46.72917" lon="-1.97667">
        <ele>10</ele>
        <time>2026-02-24T14:37:37Z</time>
      </trkpt>
      <trkpt lat="46.72916" lon="-1.97662">
        <ele>10</ele>
        <time>2026-02-24T14:37:39Z</time>
      </trkpt>
      <trkpt lat="46.72914" lon="-1.97658">
        <ele>10</ele>
        <time>2026-02-24T14:37:41Z</time>
      </trkpt>
      <trkpt lat="46.72913" lon="-1.97653">
        <ele>10</ele>
        <time>2026-02-24T14:37:43Z</time>
      </trkpt>
      <trkpt lat="46.72912" lon="-1.97649">
        <ele>9</ele>
        <time>2026-02-24T14:37:46Z</time>
      </trkpt>
      <trkpt lat="46.72911" lon="-1.97645">
        <ele>9</ele>
        <time>2026-02-24T14:37:49Z</time>
      </trkpt>
      <trkpt lat="46.7291" lon="-1.9764">
        <ele>8</ele>
        <time>2026-02-24T14:37:54Z</time>
      </trkpt>
      <trkpt lat="46.72909" lon="-1.97636">
        <ele>8</ele>
        <time>2026-02-24T14:37:58Z</time>
      </trkpt>
      <trkpt lat="46.72908" lon="-1.97631">
        <ele>8</ele>
        <time>2026-02-24T14:38:02Z</time>
      </trkpt>
      <trkpt lat="46.72907" lon="-1.97627">
        <ele>8</ele>
        <time>2026-02-24T14:38:05Z</time>
      </trkpt>
      <trkpt lat="46.72906" lon="-1.97622">
        <ele>9</ele>
        <time>2026-02-24T14:38:07Z</time>
      </trkpt>
      <trkpt lat="46.72904" lon="-1.97619">
        <ele>9</ele>
        <time>2026-02-24T14:38:09Z</time>
      </trkpt>
      <trkpt lat="46.72903" lon="-1.97615">
        <ele>9</ele>
        <time>2026-02-24T14:38:12Z</time>
      </trkpt>
      <trkpt lat="46.72902" lon="-1.97611">
        <ele>10</ele>
        <time>2026-02-24T14:38:15Z</time>
      </trkpt>
      <trkpt lat="46.72901" lon="-1.97606">
        <ele>10</ele>
        <time>2026-02-24T14:38:19Z</time>
      </trkpt>
      <trkpt lat="46.72903" lon="-1.97602">
        <ele>11</ele>
        <time>2026-02-24T14:38:27Z</time>
      </trkpt>
      <trkpt lat="46.72905" lon="-1.97599">
        <ele>11</ele>
        <time>2026-02-24T14:38:30Z</time>
      </trkpt>
      <trkpt lat="46.72907" lon="-1.97596">
        <ele>12</ele>
        <time>2026-02-24T14:38:33Z</time>
      </trkpt>
      <trkpt lat="46.7291" lon="-1.97594">
        <ele>12</ele>
        <time>2026-02-24T14:38:36Z</time>
      </trkpt>
      <trkpt lat="46.72912" lon="-1.97591">
        <ele>12</ele>
        <time>2026-02-24T14:38:40Z</time>
      </trkpt>
      <trkpt lat="46.72914" lon="-1.97587">
        <ele>12</ele>
        <time>2026-02-24T14:38:44Z</time>
      </trkpt>
      <trkpt lat="46.72916" lon="-1.97584">
        <ele>12</ele>
        <time>2026-02-24T14:38:49Z</time>
      </trkpt>
      <trkpt lat="46.72919" lon="-1.97581">
        <ele>12</ele>
        <time>2026-02-24T14:38:52Z</time>
      </trkpt>
      <trkpt lat="46.72921" lon="-1.97579">
        <ele>12</ele>
        <time>2026-02-24T14:38:55Z</time>
      </trkpt>
      <trkpt lat="46.72924" lon="-1.97577">
        <ele>12</ele>
        <time>2026-02-24T14:38:58Z</time>
      </trkpt>
      <trkpt lat="46.72927" lon="-1.97576">
        <ele>11</ele>
        <time>2026-02-24T14:39:02Z</time>
      </trkpt>
      <trkpt lat="46.72929" lon="-1.97574">
        <ele>10</ele>
        <time>2026-02-24T14:39:05Z</time>
      </trkpt>
      <trkpt lat="46.72933" lon="-1.97573">
        <ele>10</ele>
        <time>2026-02-24T14:39:08Z</time>
      </trkpt>
      <trkpt lat="46.72936" lon="-1.97571">
        <ele>9</ele>
        <time>2026-02-24T14:39:10Z</time>
      </trkpt>
      <trkpt lat="46.72939" lon="-1.97569">
        <ele>9</ele>
        <time>2026-02-24T14:39:13Z</time>
      </trkpt>
      <trkpt lat="46.72941" lon="-1.97566">
        <ele>9</ele>
        <time>2026-02-24T14:39:17Z</time>
      </trkpt>
      <trkpt lat="46.72942" lon="-1.97562">
        <ele>8</ele>
        <time>2026-02-24T14:39:22Z</time>
      </trkpt>
      <trkpt lat="46.72939" lon="-1.97554">
        <ele>10</ele>
        <time>2026-02-24T14:40:01Z</time>
      </trkpt>
      <trkpt lat="46.72934" lon="-1.97547">
        <ele>11</ele>
        <time>2026-02-24T14:40:06Z</time>
      </trkpt>
      <trkpt lat="46.72932" lon="-1.97545">
        <ele>12</ele>
        <time>2026-02-24T14:40:12Z</time>
      </trkpt>
      <trkpt lat="46.7293" lon="-1.97544">
        <ele>14</ele>
        <time>2026-02-24T14:40:34Z</time>
      </trkpt>
      <trkpt lat="46.72927" lon="-1.97543">
        <ele>14</ele>
        <time>2026-02-24T14:40:36Z</time>
      </trkpt>
      <trkpt lat="46.72924" lon="-1.9754">
        <ele>13</ele>
        <time>2026-02-24T14:40:40Z</time>
      </trkpt>
      <trkpt lat="46.72921" lon="-1.97538">
        <ele>12</ele>
        <time>2026-02-24T14:40:43Z</time>
      </trkpt>
      <trkpt lat="46.72918" lon="-1.97535">
        <ele>10</ele>
        <time>2026-02-24T14:40:46Z</time>
      </trkpt>
      <trkpt lat="46.72915" lon="-1.97533">
        <ele>7</ele>
        <time>2026-02-24T14:40:49Z</time>
      </trkpt>
      <trkpt lat="46.72913" lon="-1.9753">
        <ele>5</ele>
        <time>2026-02-24T14:40:51Z</time>
      </trkpt>
      <trkpt lat="46.7291" lon="-1.97528">
        <ele>3</ele>
        <time>2026-02-24T14:40:54Z</time>
      </trkpt>
      <trkpt lat="46.72907" lon="-1.97526">
        <ele>1</ele>
        <time>2026-02-24T14:40:57Z</time>
      </trkpt>
      <trkpt lat="46.72904" lon="-1.97523">
        <ele>16.1</ele>
        <time>2026-02-24T14:41:00Z</time>
      </trkpt>
      <trkpt lat="46.72901" lon="-1.97521">
        <ele>-2</ele>
        <time>2026-02-24T14:41:05Z</time>
      </trkpt>
      <trkpt lat="46.72898" lon="-1.97519">
        <ele>-4</ele>
        <time>2026-02-24T14:41:08Z</time>
      </trkpt>
      <trkpt lat="46.72896" lon="-1.97516">
        <ele>-4</ele>
        <time>2026-02-24T14:41:11Z</time>
      </trkpt>
      <trkpt lat="46.72893" lon="-1.97514">
        <ele>-5</ele>
        <time>2026-02-24T14:41:14Z</time>
      </trkpt>
      <trkpt lat="46.7289" lon="-1.97511">
        <ele>-5</ele>
        <time>2026-02-24T14:41:17Z</time>
      </trkpt>
      <trkpt lat="46.72887" lon="-1.97509">
        <ele>-5</ele>
        <time>2026-02-24T14:41:20Z</time>
      </trkpt>
      <trkpt lat="46.72884" lon="-1.97507">
        <ele>-5</ele>
        <time>2026-02-24T14:41:24Z</time>
      </trkpt>
      <trkpt lat="46.72882" lon="-1.97503">
        <ele>-5</ele>
        <time>2026-02-24T14:41:27Z</time>
      </trkpt>
      <trkpt lat="46.7288" lon="-1.97499">
        <ele>-5</ele>
        <time>2026-02-24T14:41:30Z</time>
      </trkpt>
      <trkpt lat="46.72877" lon="-1.97495">
        <ele>-6</ele>
        <time>2026-02-24T14:41:34Z</time>
      </trkpt>
      <trkpt lat="46.72875" lon="-1.97491">
        <ele>-6</ele>
        <time>2026-02-24T14:41:37Z</time>
      </trkpt>
      <trkpt lat="46.72872" lon="-1.97488">
        <ele>-7</ele>
        <time>2026-02-24T14:41:40Z</time>
      </trkpt>
      <trkpt lat="46.72869" lon="-1.97486">
        <ele>-7</ele>
        <time>2026-02-24T14:41:43Z</time>
      </trkpt>
      <trkpt lat="46.72865" lon="-1.97482">
        <ele>-6</ele>
        <time>2026-02-24T14:41:45Z</time>
      </trkpt>
      <trkpt lat="46.72862" lon="-1.97479">
        <ele>-6</ele>
        <time>2026-02-24T14:41:47Z</time>
      </trkpt>
      <trkpt lat="46.72859" lon="-1.97477">
        <ele>-6</ele>
        <time>2026-02-24T14:41:49Z</time>
      </trkpt>
      <trkpt lat="46.72856" lon="-1.97476">
        <ele>-5</ele>
        <time>2026-02-24T14:41:52Z</time>
      </trkpt>
      <trkpt lat="46.72853" lon="-1.97473">
        <ele>-4</ele>
        <time>2026-02-24T14:41:54Z</time>
      </trkpt>
      <trkpt lat="46.72851" lon="-1.97471">
        <ele>-3</ele>
        <time>2026-02-24T14:41:56Z</time>
      </trkpt>
      <trkpt lat="46.72848" lon="-1.97469">
        <ele>-3</ele>
        <time>2026-02-24T14:41:58Z</time>
      </trkpt>
      <trkpt lat="46.72845" lon="-1.97467">
        <ele>-2</ele>
        <time>2026-02-24T14:42:00Z</time>
      </trkpt>
      <trkpt lat="46.72842" lon="-1.97464">
        <ele>-1</ele>
        <time>2026-02-24T14:42:02Z</time>
      </trkpt>
      <trkpt lat="46.7284" lon="-1.97461">
        <ele>19.8</ele>
        <time>2026-02-24T14:42:04Z</time>
      </trkpt>
      <trkpt lat="46.72837" lon="-1.9746">
        <ele>1</ele>
        <time>2026-02-24T14:42:07Z</time>
      </trkpt>
      <trkpt lat="46.72834" lon="-1.97459">
        <ele>2</ele>
        <time>2026-02-24T14:42:10Z</time>
      </trkpt>
      <trkpt lat="46.7283" lon="-1.97459">
        <ele>4</ele>
        <time>2026-02-24T14:42:13Z</time>
      </trkpt>
      <trkpt lat="46.72827" lon="-1.97459">
        <ele>5</ele>
        <time>2026-02-24T14:42:16Z</time>
      </trkpt>
      <trkpt lat="46.72825" lon="-1.97457">
        <ele>6</ele>
        <time>2026-02-24T14:42:18Z</time>
      </trkpt>
      <trkpt lat="46.72822" lon="-1.97455">
        <ele>7</ele>
        <time>2026-02-24T14:42:20Z</time>
      </trkpt>
      <trkpt lat="46.72819" lon="-1.97453">
        <ele>8</ele>
        <time>2026-02-24T14:42:22Z</time>
      </trkpt>
      <trkpt lat="46.72816" lon="-1.97451">
        <ele>10</ele>
        <time>2026-02-24T14:42:25Z</time>
      </trkpt>
      <trkpt lat="46.72814" lon="-1.97449">
        <ele>11</ele>
        <time>2026-02-24T14:42:28Z</time>
      </trkpt>
      <trkpt lat="46.72811" lon="-1.97446">
        <ele>12</ele>
        <time>2026-02-24T14:42:31Z</time>
      </trkpt>
      <trkpt lat="46.72809" lon="-1.97442">
        <ele>13</ele>
        <time>2026-02-24T14:42:36Z</time>
      </trkpt>
      <trkpt lat="46.72809" lon="-1.97438">
        <ele>14</ele>
        <time>2026-02-24T14:42:40Z</time>
      </trkpt>
      <trkpt lat="46.7281" lon="-1.97435">
        <ele>14</ele>
        <time>2026-02-24T14:42:44Z</time>
      </trkpt>
      <trkpt lat="46.72811" lon="-1.97431">
        <ele>15</ele>
        <time>2026-02-24T14:42:50Z</time>
      </trkpt>
      <trkpt lat="46.72813" lon="-1.97428">
        <ele>14</ele>
        <time>2026-02-24T14:42:55Z</time>
      </trkpt>
      <trkpt lat="46.72815" lon="-1.97425">
        <ele>14</ele>
        <time>2026-02-24T14:42:58Z</time>
      </trkpt>
      <trkpt lat="46.72818" lon="-1.97423">
        <ele>15</ele>
        <time>2026-02-24T14:43:03Z</time>
      </trkpt>
      <trkpt lat="46.7282" lon="-1.97419">
        <ele>15</ele>
        <time>2026-02-24T14:43:09Z</time>
      </trkpt>
      <trkpt lat="46.72819" lon="-1.97416">
        <ele>15</ele>
        <time>2026-02-24T14:43:13Z</time>
      </trkpt>
      <trkpt lat="46.72819" lon="-1.97412">
        <ele>15</ele>
        <time>2026-02-24T14:43:16Z</time>
      </trkpt>
      <trkpt lat="46.7282" lon="-1.97408">
        <ele>15</ele>
        <time>2026-02-24T14:43:20Z</time>
      </trkpt>
      <trkpt lat="46.72822" lon="-1.97406">
        <ele>16</ele>
        <time>2026-02-24T14:43:25Z</time>
      </trkpt>
      <trkpt lat="46.72823" lon="-1.97408">
        <ele>16</ele>
        <time>2026-02-24T14:43:28Z</time>
      </trkpt>
      <trkpt lat="46.72826" lon="-1.97412">
        <ele>16</ele>
        <time>2026-02-24T14:43:32Z</time>
      </trkpt>
      <trkpt lat="46.72827" lon="-1.97414">
        <ele>16</ele>
        <time>2026-02-24T14:43:35Z</time>
      </trkpt>
      <trkpt lat="46.7283" lon="-1.97411">
        <ele>16</ele>
        <time>2026-02-24T14:43:50Z</time>
      </trkpt>
      <trkpt lat="46.72833" lon="-1.97409">
        <ele>15</ele>
        <time>2026-02-24T14:44:02Z</time>
      </trkpt>
      <trkpt lat="46.72836" lon="-1.97407">
        <ele>14</ele>
        <time>2026-02-24T14:44:12Z</time>
      </trkpt>
      <trkpt lat="46.72838" lon="-1.97405">
        <ele>13</ele>
        <time>2026-02-24T14:44:14Z</time>
      </trkpt>
      <trkpt lat="46.72841" lon="-1.97401">
        <ele>12</ele>
        <time>2026-02-24T14:44:16Z</time>
      </trkpt>
      <trkpt lat="46.72843" lon="-1.97398">
        <ele>12</ele>
        <time>2026-02-24T14:44:18Z</time>
      </trkpt>
      <trkpt lat="46.72845" lon="-1.97395">
        <ele>11</ele>
        <time>2026-02-24T14:44:20Z</time>
      </trkpt>
      <trkpt lat="46.72848" lon="-1.97391">
        <ele>11</ele>
        <time>2026-02-24T14:44:22Z</time>
      </trkpt>
      <trkpt lat="46.72849" lon="-1.97386">
        <ele>10</ele>
        <time>2026-02-24T14:44:25Z</time>
      </trkpt>
      <trkpt lat="46.72849" lon="-1.97381">
        <ele>7</ele>
        <time>2026-02-24T14:44:28Z</time>
      </trkpt>
      <trkpt lat="46.72847" lon="-1.97378">
        <ele>5</ele>
        <time>2026-02-24T14:44:31Z</time>
      </trkpt>
      <trkpt lat="46.72845" lon="-1.97374">
        <ele>3</ele>
        <time>2026-02-24T14:44:33Z</time>
      </trkpt>
      <trkpt lat="46.72843" lon="-1.9737">
        <ele>1</ele>
        <time>2026-02-24T14:44:35Z</time>
      </trkpt>
      <trkpt lat="46.72842" lon="-1.97366">
        <ele>5.8</ele>
        <time>2026-02-24T14:44:37Z</time>
      </trkpt>
      <trkpt lat="46.7284" lon="-1.97362">
        <ele>-1</ele>
        <time>2026-02-24T14:44:39Z</time>
      </trkpt>
      <trkpt lat="46.72838" lon="-1.97358">
        <ele>-2</ele>
        <time>2026-02-24T14:44:41Z</time>
      </trkpt>
      <trkpt lat="46.72837" lon="-1.97355">
        <ele>-4</ele>
        <time>2026-02-24T14:44:43Z</time>
      </trkpt>
      <trkpt lat="46.72834" lon="-1.97351">
        <ele>-5</ele>
        <time>2026-02-24T14:44:45Z</time>
      </trkpt>
      <trkpt lat="46.72832" lon="-1.97349">
        <ele>-6</ele>
        <time>2026-02-24T14:44:47Z</time>
      </trkpt>
      <trkpt lat="46.72831" lon="-1.97345">
        <ele>-8</ele>
        <time>2026-02-24T14:44:52Z</time>
      </trkpt>
      <trkpt lat="46.72829" lon="-1.97342">
        <ele>-10</ele>
        <time>2026-02-24T14:44:55Z</time>
      </trkpt>
      <trkpt lat="46.72828" lon="-1.97338">
        <ele>-10</ele>
        <time>2026-02-24T14:44:58Z</time>
      </trkpt>
      <trkpt lat="46.72827" lon="-1.97334">
        <ele>-11</ele>
        <time>2026-02-24T14:45:01Z</time>
      </trkpt>
      <trkpt lat="46.72825" lon="-1.9733">
        <ele>-12</ele>
        <time>2026-02-24T14:45:04Z</time>
      </trkpt>
      <trkpt lat="46.72824" lon="-1.97326">
        <ele>-13</ele>
        <time>2026-02-24T14:45:09Z</time>
      </trkpt>
      <trkpt lat="46.72823" lon="-1.97321">
        <ele>-13</ele>
        <time>2026-02-24T14:45:13Z</time>
      </trkpt>
      <trkpt lat="46.72821" lon="-1.97317">
        <ele>-14</ele>
        <time>2026-02-24T14:45:16Z</time>
      </trkpt>
      <trkpt lat="46.72819" lon="-1.97312">
        <ele>-14</ele>
        <time>2026-02-24T14:45:18Z</time>
      </trkpt>
      <trkpt lat="46.72817" lon="-1.97309">
        <ele>-14</ele>
        <time>2026-02-24T14:45:21Z</time>
      </trkpt>
      <trkpt lat="46.72815" lon="-1.97305">
        <ele>-13</ele>
        <time>2026-02-24T14:45:26Z</time>
      </trkpt>
      <trkpt lat="46.72814" lon="-1.97298">
        <ele>-8</ele>
        <time>2026-02-24T14:46:14Z</time>
      </trkpt>
      <trkpt lat="46.72813" lon="-1.97292">
        <ele>-5</ele>
        <time>2026-02-24T14:46:17Z</time>
      </trkpt>
      <trkpt lat="46.72811" lon="-1.97287">
        <ele>-4</ele>
        <time>2026-02-24T14:46:20Z</time>
      </trkpt>
      <trkpt lat="46.72811" lon="-1.97282">
        <ele>-2</ele>
        <time>2026-02-24T14:46:24Z</time>
      </trkpt>
      <trkpt lat="46.72811" lon="-1.97277">
        <ele>-1</ele>
        <time>2026-02-24T14:46:27Z</time>
      </trkpt>
      <trkpt lat="46.72812" lon="-1.97273">
        <ele>6.1</ele>
        <time>2026-02-24T14:46:29Z</time>
      </trkpt>
      <trkpt lat="46.72813" lon="-1.97269">
        <ele>6.2</ele>
        <time>2026-02-24T14:46:31Z</time>
      </trkpt>
      <trkpt lat="46.72814" lon="-1.97265">
        <ele>1</ele>
        <time>2026-02-24T14:46:33Z</time>
      </trkpt>
      <trkpt lat="46.72816" lon="-1.97261">
        <ele>2</ele>
        <time>2026-02-24T14:46:36Z</time>
      </trkpt>
      <trkpt lat="46.72817" lon="-1.97256">
        <ele>3</ele>
        <time>2026-02-24T14:46:39Z</time>
      </trkpt>
      <trkpt lat="46.72819" lon="-1.97252">
        <ele>4</ele>
        <time>2026-02-24T14:46:42Z</time>
      </trkpt>
      <trkpt lat="46.7282" lon="-1.97248">
        <ele>4</ele>
        <time>2026-02-24T14:46:45Z</time>
      </trkpt>
      <trkpt lat="46.72822" lon="-1.97244">
        <ele>5</ele>
        <time>2026-02-24T14:46:47Z</time>
      </trkpt>
      <trkpt lat="46.72824" lon="-1.97241">
        <ele>5</ele>
        <time>2026-02-24T14:46:49Z</time>
      </trkpt>
      <trkpt lat="46.72826" lon="-1.97237">
        <ele>5</ele>
        <time>2026-02-24T14:46:51Z</time>
      </trkpt>
      <trkpt lat="46.72827" lon="-1.97234">
        <ele>5</ele>
        <time>2026-02-24T14:46:53Z</time>
      </trkpt>
      <trkpt lat="46.72829" lon="-1.97229">
        <ele>5</ele>
        <time>2026-02-24T14:46:55Z</time>
      </trkpt>
      <trkpt lat="46.7283" lon="-1.97225">
        <ele>4</ele>
        <time>2026-02-24T14:46:57Z</time>
      </trkpt>
      <trkpt lat="46.72831" lon="-1.97221">
        <ele>4</ele>
        <time>2026-02-24T14:46:59Z</time>
      </trkpt>
      <trkpt lat="46.72832" lon="-1.97216">
        <ele>4</ele>
        <time>2026-02-24T14:47:02Z</time>
      </trkpt>
      <trkpt lat="46.72833" lon="-1.97212">
        <ele>4</ele>
        <time>2026-02-24T14:47:04Z</time>
      </trkpt>
      <trkpt lat="46.72835" lon="-1.97208">
        <ele>4</ele>
        <time>2026-02-24T14:47:06Z</time>
      </trkpt>
      <trkpt lat="46.72836" lon="-1.97205">
        <ele>4</ele>
        <time>2026-02-24T14:47:08Z</time>
      </trkpt>
      <trkpt lat="46.72837" lon="-1.972">
        <ele>3</ele>
        <time>2026-02-24T14:47:10Z</time>
      </trkpt>
      <trkpt lat="46.72837" lon="-1.97195">
        <ele>3</ele>
        <time>2026-02-24T14:47:12Z</time>
      </trkpt>
      <trkpt lat="46.72838" lon="-1.9719">
        <ele>4</ele>
        <time>2026-02-24T14:47:14Z</time>
      </trkpt>
      <trkpt lat="46.72838" lon="-1.97185">
        <ele>4</ele>
        <time>2026-02-24T14:47:16Z</time>
      </trkpt>
      <trkpt lat="46.72839" lon="-1.9718">
        <ele>4</ele>
        <time>2026-02-24T14:47:18Z</time>
      </trkpt>
      <trkpt lat="46.72839" lon="-1.97176">
        <ele>5</ele>
        <time>2026-02-24T14:47:20Z</time>
      </trkpt>
      <trkpt lat="46.7284" lon="-1.97172">
        <ele>5</ele>
        <time>2026-02-24T14:47:22Z</time>
      </trkpt>
      <trkpt lat="46.72841" lon="-1.97167">
        <ele>5</ele>
        <time>2026-02-24T14:47:25Z</time>
      </trkpt>
      <trkpt lat="46.72842" lon="-1.97162">
        <ele>6</ele>
        <time>2026-02-24T14:47:27Z</time>
      </trkpt>
      <trkpt lat="46.72843" lon="-1.97158">
        <ele>6</ele>
        <time>2026-02-24T14:47:29Z</time>
      </trkpt>
      <trkpt lat="46.72843" lon="-1.97154">
        <ele>6</ele>
        <time>2026-02-24T14:47:31Z</time>
      </trkpt>
      <trkpt lat="46.72844" lon="-1.9715">
        <ele>7</ele>
        <time>2026-02-24T14:47:33Z</time>
      </trkpt>
      <trkpt lat="46.72845" lon="-1.97146">
        <ele>7</ele>
        <time>2026-02-24T14:47:35Z</time>
      </trkpt>
      <trkpt lat="46.72846" lon="-1.97142">
        <ele>7</ele>
        <time>2026-02-24T14:47:37Z</time>
      </trkpt>
      <trkpt lat="46.72847" lon="-1.97137">
        <ele>7</ele>
        <time>2026-02-24T14:47:40Z</time>
      </trkpt>
      <trkpt lat="46.72848" lon="-1.97133">
        <ele>8</ele>
        <time>2026-02-24T14:47:42Z</time>
      </trkpt>
      <trkpt lat="46.72848" lon="-1.97128">
        <ele>9</ele>
        <time>2026-02-24T14:47:46Z</time>
      </trkpt>
      <trkpt lat="46.72847" lon="-1.97125">
        <ele>9</ele>
        <time>2026-02-24T14:47:50Z</time>
      </trkpt>
      <trkpt lat="46.72845" lon="-1.97122">
        <ele>10</ele>
        <time>2026-02-24T14:47:54Z</time>
      </trkpt>
      <trkpt lat="46.72843" lon="-1.97119">
        <ele>9</ele>
        <time>2026-02-24T14:47:58Z</time>
      </trkpt>
      <trkpt lat="46.72841" lon="-1.97116">
        <ele>9</ele>
        <time>2026-02-24T14:48:02Z</time>
      </trkpt>
      <trkpt lat="46.72838" lon="-1.97113">
        <ele>8</ele>
        <time>2026-02-24T14:48:05Z</time>
      </trkpt>
      <trkpt lat="46.72834" lon="-1.97112">
        <ele>8</ele>
        <time>2026-02-24T14:48:09Z</time>
      </trkpt>
      <trkpt lat="46.72831" lon="-1.97111">
        <ele>8</ele>
        <time>2026-02-24T14:48:11Z</time>
      </trkpt>
      <trkpt lat="46.72829" lon="-1.9711">
        <ele>7</ele>
        <time>2026-02-24T14:48:13Z</time>
      </trkpt>
      <trkpt lat="46.72825" lon="-1.97109">
        <ele>7</ele>
        <time>2026-02-24T14:48:16Z</time>
      </trkpt>
      <trkpt lat="46.72822" lon="-1.97108">
        <ele>7</ele>
        <time>2026-02-24T14:48:19Z</time>
      </trkpt>
      <trkpt lat="46.72819" lon="-1.97106">
        <ele>6</ele>
        <time>2026-02-24T14:48:22Z</time>
      </trkpt>
      <trkpt lat="46.72815" lon="-1.97106">
        <ele>6</ele>
        <time>2026-02-24T14:48:25Z</time>
      </trkpt>
      <trkpt lat="46.72811" lon="-1.97107">
        <ele>5</ele>
        <time>2026-02-24T14:48:28Z</time>
      </trkpt>
      <trkpt lat="46.72808" lon="-1.97107">
        <ele>4</ele>
        <time>2026-02-24T14:48:31Z</time>
      </trkpt>
      <trkpt lat="46.72804" lon="-1.97106">
        <ele>3</ele>
        <time>2026-02-24T14:48:34Z</time>
      </trkpt>
      <trkpt lat="46.72801" lon="-1.97106">
        <ele>3</ele>
        <time>2026-02-24T14:48:37Z</time>
      </trkpt>
      <trkpt lat="46.72797" lon="-1.97106">
        <ele>2</ele>
        <time>2026-02-24T14:48:42Z</time>
      </trkpt>
      <trkpt lat="46.72794" lon="-1.97105">
        <ele>1</ele>
        <time>2026-02-24T14:48:46Z</time>
      </trkpt>
      <trkpt lat="46.72792" lon="-1.97103">
        <ele>5.3</ele>
        <time>2026-02-24T14:48:51Z</time>
      </trkpt>
      <trkpt lat="46.72789" lon="-1.97103">
        <ele>5.4</ele>
        <time>2026-02-24T14:48:56Z</time>
      </trkpt>
      <trkpt lat="46.72786" lon="-1.97106">
        <ele>5.6</ele>
        <time>2026-02-24T14:49:00Z</time>
      </trkpt>
      <trkpt lat="46.72783" lon="-1.97106">
        <ele>5.7</ele>
        <time>2026-02-24T14:49:03Z</time>
      </trkpt>
      <trkpt lat="46.7278" lon="-1.97105">
        <ele>5.7</ele>
        <time>2026-02-24T14:49:06Z</time>
      </trkpt>
      <trkpt lat="46.72777" lon="-1.97104">
        <ele>1</ele>
        <time>2026-02-24T14:49:12Z</time>
      </trkpt>
      <trkpt lat="46.72773" lon="-1.97103">
        <ele>2</ele>
        <time>2026-02-24T14:49:16Z</time>
      </trkpt>
      <trkpt lat="46.7277" lon="-1.97102">
        <ele>3</ele>
        <time>2026-02-24T14:49:19Z</time>
      </trkpt>
      <trkpt lat="46.72766" lon="-1.97102">
        <ele>4</ele>
        <time>2026-02-24T14:49:22Z</time>
      </trkpt>
      <trkpt lat="46.72763" lon="-1.97103">
        <ele>4</ele>
        <time>2026-02-24T14:49:25Z</time>
      </trkpt>
      <trkpt lat="46.7276" lon="-1.97104">
        <ele>5</ele>
        <time>2026-02-24T14:49:29Z</time>
      </trkpt>
      <trkpt lat="46.72757" lon="-1.97104">
        <ele>5</ele>
        <time>2026-02-24T14:49:33Z</time>
      </trkpt>
      <trkpt lat="46.72753" lon="-1.97103">
        <ele>5</ele>
        <time>2026-02-24T14:49:36Z</time>
      </trkpt>
      <trkpt lat="46.72749" lon="-1.97101">
        <ele>5</ele>
        <time>2026-02-24T14:49:39Z</time>
      </trkpt>
      <trkpt lat="46.72746" lon="-1.971">
        <ele>4</ele>
        <time>2026-02-24T14:49:41Z</time>
      </trkpt>
      <trkpt lat="46.72742" lon="-1.97099">
        <ele>4</ele>
        <time>2026-02-24T14:49:43Z</time>
      </trkpt>
      <trkpt lat="46.72739" lon="-1.97097">
        <ele>4</ele>
        <time>2026-02-24T14:49:45Z</time>
      </trkpt>
      <trkpt lat="46.72736" lon="-1.97096">
        <ele>3</ele>
        <time>2026-02-24T14:49:47Z</time>
      </trkpt>
      <trkpt lat="46.72733" lon="-1.97094">
        <ele>3</ele>
        <time>2026-02-24T14:49:49Z</time>
      </trkpt>
      <trkpt lat="46.7273" lon="-1.97093">
        <ele>3</ele>
        <time>2026-02-24T14:49:51Z</time>
      </trkpt>
      <trkpt lat="46.72727" lon="-1.97093">
        <ele>4</ele>
        <time>2026-02-24T14:49:53Z</time>
      </trkpt>
      <trkpt lat="46.72724" lon="-1.97092">
        <ele>4</ele>
        <time>2026-02-24T14:49:55Z</time>
      </trkpt>
      <trkpt lat="46.72721" lon="-1.97091">
        <ele>4</ele>
        <time>2026-02-24T14:49:57Z</time>
      </trkpt>
      <trkpt lat="46.72719" lon="-1.97089">
        <ele>5</ele>
        <time>2026-02-24T14:49:59Z</time>
      </trkpt>
      <trkpt lat="46.72716" lon="-1.97087">
        <ele>5</ele>
        <time>2026-02-24T14:50:01Z</time>
      </trkpt>
      <trkpt lat="46.72713" lon="-1.97084">
        <ele>5</ele>
        <time>2026-02-24T14:50:04Z</time>
      </trkpt>
      <trkpt lat="46.7271" lon="-1.97081">
        <ele>5</ele>
        <time>2026-02-24T14:50:08Z</time>
      </trkpt>
      <trkpt lat="46.72708" lon="-1.97078">
        <ele>4</ele>
        <time>2026-02-24T14:50:11Z</time>
      </trkpt>
      <trkpt lat="46.72705" lon="-1.97075">
        <ele>3</ele>
        <time>2026-02-24T14:50:14Z</time>
      </trkpt>
      <trkpt lat="46.72702" lon="-1.97072">
        <ele>3</ele>
        <time>2026-02-24T14:50:17Z</time>
      </trkpt>
      <trkpt lat="46.72699" lon="-1.97071">
        <ele>3</ele>
        <time>2026-02-24T14:50:20Z</time>
      </trkpt>
      <trkpt lat="46.72696" lon="-1.97069">
        <ele>3</ele>
        <time>2026-02-24T14:50:23Z</time>
      </trkpt>
      <trkpt lat="46.72693" lon="-1.97067">
        <ele>3</ele>
        <time>2026-02-24T14:50:26Z</time>
      </trkpt>
      <trkpt lat="46.7269" lon="-1.97066">
        <ele>2</ele>
        <time>2026-02-24T14:50:28Z</time>
      </trkpt>
      <trkpt lat="46.72687" lon="-1.97064">
        <ele>2</ele>
        <time>2026-02-24T14:50:30Z</time>
      </trkpt>
      <trkpt lat="46.72685" lon="-1.97062">
        <ele>2</ele>
        <time>2026-02-24T14:50:32Z</time>
      </trkpt>
      <trkpt lat="46.72682" lon="-1.9706">
        <ele>2</ele>
        <time>2026-02-24T14:50:35Z</time>
      </trkpt>
      <trkpt lat="46.72679" lon="-1.97057">
        <ele>1</ele>
        <time>2026-02-24T14:50:38Z</time>
      </trkpt>
      <trkpt lat="46.72676" lon="-1.97054">
        <ele>1</ele>
        <time>2026-02-24T14:50:41Z</time>
      </trkpt>
      <trkpt lat="46.72673" lon="-1.97052">
        <ele>1</ele>
        <time>2026-02-24T14:50:43Z</time>
      </trkpt>
      <trkpt lat="46.7267" lon="-1.97049">
        <ele>1</ele>
        <time>2026-02-24T14:50:45Z</time>
      </trkpt>
      <trkpt lat="46.72667" lon="-1.97048">
        <ele>6.3</ele>
        <time>2026-02-24T14:50:47Z</time>
      </trkpt>
      <trkpt lat="46.72664" lon="-1.97046">
        <ele>6.4</ele>
        <time>2026-02-24T14:50:49Z</time>
      </trkpt>
      <trkpt lat="46.7266" lon="-1.97044">
        <ele>6.5</ele>
        <time>2026-02-24T14:50:51Z</time>
      </trkpt>
      <trkpt lat="46.72657" lon="-1.97042">
        <ele>6.5</ele>
        <time>2026-02-24T14:50:53Z</time>
      </trkpt>
      <trkpt lat="46.72655" lon="-1.97039">
        <ele>6.5</ele>
        <time>2026-02-24T14:50:55Z</time>
      </trkpt>
      <trkpt lat="46.72652" lon="-1.97037">
        <ele>6.5</ele>
        <time>2026-02-24T14:50:57Z</time>
      </trkpt>
      <trkpt lat="46.72649" lon="-1.97035">
        <ele>6.4</ele>
        <time>2026-02-24T14:50:59Z</time>
      </trkpt>
      <trkpt lat="46.72647" lon="-1.97033">
        <ele>6.4</ele>
        <time>2026-02-24T14:51:01Z</time>
      </trkpt>
      <trkpt lat="46.72644" lon="-1.97031">
        <ele>6.3</ele>
        <time>2026-02-24T14:51:04Z</time>
      </trkpt>
      <trkpt lat="46.72641" lon="-1.97029">
        <ele>6.1</ele>
        <time>2026-02-24T14:51:06Z</time>
      </trkpt>
      <trkpt lat="46.72637" lon="-1.97028">
        <ele>6.1</ele>
        <time>2026-02-24T14:51:09Z</time>
      </trkpt>
      <trkpt lat="46.72634" lon="-1.97028">
        <ele>1</ele>
        <time>2026-02-24T14:51:11Z</time>
      </trkpt>
      <trkpt lat="46.72631" lon="-1.97026">
        <ele>1</ele>
        <time>2026-02-24T14:51:13Z</time>
      </trkpt>
      <trkpt lat="46.72628" lon="-1.97025">
        <ele>2</ele>
        <time>2026-02-24T14:51:15Z</time>
      </trkpt>
      <trkpt lat="46.72625" lon="-1.97024">
        <ele>3</ele>
        <time>2026-02-24T14:51:18Z</time>
      </trkpt>
      <trkpt lat="46.72622" lon="-1.97022">
        <ele>4</ele>
        <time>2026-02-24T14:51:20Z</time>
      </trkpt>
      <trkpt lat="46.7262" lon="-1.97019">
        <ele>5</ele>
        <time>2026-02-24T14:51:22Z</time>
      </trkpt>
      <trkpt lat="46.72619" lon="-1.97014">
        <ele>5</ele>
        <time>2026-02-24T14:51:24Z</time>
      </trkpt>
      <trkpt lat="46.72617" lon="-1.97009">
        <ele>6</ele>
        <time>2026-02-24T14:51:26Z</time>
      </trkpt>
      <trkpt lat="46.72616" lon="-1.97005">
        <ele>6</ele>
        <time>2026-02-24T14:51:28Z</time>
      </trkpt>
      <trkpt lat="46.72615" lon="-1.97001">
        <ele>6</ele>
        <time>2026-02-24T14:51:31Z</time>
      </trkpt>
      <trkpt lat="46.72615" lon="-1.96996">
        <ele>7</ele>
        <time>2026-02-24T14:51:34Z</time>
      </trkpt>
      <trkpt lat="46.72617" lon="-1.96991">
        <ele>6</ele>
        <time>2026-02-24T14:51:37Z</time>
      </trkpt>
      <trkpt lat="46.72618" lon="-1.96988">
        <ele>6</ele>
        <time>2026-02-24T14:51:39Z</time>
      </trkpt>
      <trkpt lat="46.7262" lon="-1.96984">
        <ele>6</ele>
        <time>2026-02-24T14:51:42Z</time>
      </trkpt>
      <trkpt lat="46.72622" lon="-1.9698">
        <ele>5</ele>
        <time>2026-02-24T14:51:45Z</time>
      </trkpt>
      <trkpt lat="46.72624" lon="-1.96975">
        <ele>5</ele>
        <time>2026-02-24T14:51:48Z</time>
      </trkpt>
      <trkpt lat="46.72625" lon="-1.96976">
        <ele>4</ele>
        <time>2026-02-24T14:51:59Z</time>
      </trkpt>
      <trkpt lat="46.72626" lon="-1.96973">
        <ele>3</ele>
        <time>2026-02-24T14:52:09Z</time>
      </trkpt>
      <trkpt lat="46.72627" lon="-1.96968">
        <ele>3</ele>
        <time>2026-02-24T14:52:11Z</time>
      </trkpt>
      <trkpt lat="46.72627" lon="-1.96963">
        <ele>3</ele>
        <time>2026-02-24T14:52:13Z</time>
      </trkpt>
      <trkpt lat="46.72628" lon="-1.96959">
        <ele>3</ele>
        <time>2026-02-24T14:52:15Z</time>
      </trkpt>
      <trkpt lat="46.72628" lon="-1.96954">
        <ele>4</ele>
        <time>2026-02-24T14:52:18Z</time>
      </trkpt>
      <trkpt lat="46.72628" lon="-1.96949">
        <ele>5</ele>
        <time>2026-02-24T14:52:21Z</time>
      </trkpt>
      <trkpt lat="46.72629" lon="-1.96945">
        <ele>5</ele>
        <time>2026-02-24T14:52:23Z</time>
      </trkpt>
      <trkpt lat="46.72631" lon="-1.9694">
        <ele>5</ele>
        <time>2026-02-24T14:52:25Z</time>
      </trkpt>
      <trkpt lat="46.72632" lon="-1.96936">
        <ele>6</ele>
        <time>2026-02-24T14:52:28Z</time>
      </trkpt>
      <trkpt lat="46.72632" lon="-1.96931">
        <ele>6</ele>
        <time>2026-02-24T14:52:32Z</time>
      </trkpt>
      <trkpt lat="46.72633" lon="-1.96926">
        <ele>7</ele>
        <time>2026-02-24T14:52:36Z</time>
      </trkpt>
      <trkpt lat="46.72634" lon="-1.9692">
        <ele>7</ele>
        <time>2026-02-24T14:52:39Z</time>
      </trkpt>
      <trkpt lat="46.72635" lon="-1.96916">
        <ele>6</ele>
        <time>2026-02-24T14:52:41Z</time>
      </trkpt>
      <trkpt lat="46.72637" lon="-1.96913">
        <ele>7</ele>
        <time>2026-02-24T14:52:44Z</time>
      </trkpt>
      <trkpt lat="46.7264" lon="-1.9691">
        <ele>7</ele>
        <time>2026-02-24T14:52:47Z</time>
      </trkpt>
      <trkpt lat="46.72642" lon="-1.96906">
        <ele>7</ele>
        <time>2026-02-24T14:52:50Z</time>
      </trkpt>
      <trkpt lat="46.72643" lon="-1.96902">
        <ele>7</ele>
        <time>2026-02-24T14:52:53Z</time>
      </trkpt>
      <trkpt lat="46.72644" lon="-1.96898">
        <ele>6</ele>
        <time>2026-02-24T14:53:02Z</time>
      </trkpt>
      <trkpt lat="46.72645" lon="-1.96894">
        <ele>6</ele>
        <time>2026-02-24T14:53:05Z</time>
      </trkpt>
      <trkpt lat="46.72645" lon="-1.96889">
        <ele>6</ele>
        <time>2026-02-24T14:53:08Z</time>
      </trkpt>
      <trkpt lat="46.72646" lon="-1.96884">
        <ele>6</ele>
        <time>2026-02-24T14:53:11Z</time>
      </trkpt>
      <trkpt lat="46.72646" lon="-1.96879">
        <ele>6</ele>
        <time>2026-02-24T14:53:13Z</time>
      </trkpt>
      <trkpt lat="46.72647" lon="-1.96875">
        <ele>6</ele>
        <time>2026-02-24T14:53:16Z</time>
      </trkpt>
      <trkpt lat="46.72648" lon="-1.96871">
        <ele>7</ele>
        <time>2026-02-24T14:53:19Z</time>
      </trkpt>
      <trkpt lat="46.72648" lon="-1.96866">
        <ele>7</ele>
        <time>2026-02-24T14:53:23Z</time>
      </trkpt>
      <trkpt lat="46.72648" lon="-1.96861">
        <ele>8</ele>
        <time>2026-02-24T14:53:26Z</time>
      </trkpt>
      <trkpt lat="46.72648" lon="-1.96856">
        <ele>8</ele>
        <time>2026-02-24T14:53:29Z</time>
      </trkpt>
      <trkpt lat="46.72648" lon="-1.96851">
        <ele>8</ele>
        <time>2026-02-24T14:53:32Z</time>
      </trkpt>
      <trkpt lat="46.72648" lon="-1.96845">
        <ele>8</ele>
        <time>2026-02-24T14:53:34Z</time>
      </trkpt>
      <trkpt lat="46.72648" lon="-1.96841">
        <ele>8</ele>
        <time>2026-02-24T14:53:36Z</time>
      </trkpt>
      <trkpt lat="46.72647" lon="-1.96836">
        <ele>9</ele>
        <time>2026-02-24T14:53:38Z</time>
      </trkpt>
      <trkpt lat="46.72647" lon="-1.96831">
        <ele>9</ele>
        <time>2026-02-24T14:53:40Z</time>
      </trkpt>
      <trkpt lat="46.72647" lon="-1.96826">
        <ele>9</ele>
        <time>2026-02-24T14:53:42Z</time>
      </trkpt>
      <trkpt lat="46.72647" lon="-1.96821">
        <ele>9</ele>
        <time>2026-02-24T14:53:44Z</time>
      </trkpt>
      <trkpt lat="46.72648" lon="-1.96816">
        <ele>10</ele>
        <time>2026-02-24T14:53:46Z</time>
      </trkpt>
      <trkpt lat="46.72649" lon="-1.96811">
        <ele>10</ele>
        <time>2026-02-24T14:53:49Z</time>
      </trkpt>
      <trkpt lat="46.7265" lon="-1.96807">
        <ele>10</ele>
        <time>2026-02-24T14:53:51Z</time>
      </trkpt>
      <trkpt lat="46.72652" lon="-1.96803">
        <ele>9</ele>
        <time>2026-02-24T14:53:54Z</time>
      </trkpt>
      <trkpt lat="46.72653" lon="-1.96798">
        <ele>9</ele>
        <time>2026-02-24T14:53:56Z</time>
      </trkpt>
      <trkpt lat="46.72653" lon="-1.96794">
        <ele>9</ele>
        <time>2026-02-24T14:53:58Z</time>
      </trkpt>
      <trkpt lat="46.72654" lon="-1.96789">
        <ele>9</ele>
        <time>2026-02-24T14:54:00Z</time>
      </trkpt>
      <trkpt lat="46.72654" lon="-1.96784">
        <ele>9</ele>
        <time>2026-02-24T14:54:03Z</time>
      </trkpt>
      <trkpt lat="46.72655" lon="-1.9678">
        <ele>9</ele>
        <time>2026-02-24T14:54:06Z</time>
      </trkpt>
      <trkpt lat="46.72656" lon="-1.96776">
        <ele>9</ele>
        <time>2026-02-24T14:54:09Z</time>
      </trkpt>
      <trkpt lat="46.72658" lon="-1.96772">
        <ele>9</ele>
        <time>2026-02-24T14:54:12Z</time>
      </trkpt>
      <trkpt lat="46.72658" lon="-1.96768">
        <ele>10</ele>
        <time>2026-02-24T14:54:15Z</time>
      </trkpt>
      <trkpt lat="46.72659" lon="-1.96763">
        <ele>10</ele>
        <time>2026-02-24T14:54:18Z</time>
      </trkpt>
      <trkpt lat="46.72658" lon="-1.96758">
        <ele>12</ele>
        <time>2026-02-24T14:54:22Z</time>
      </trkpt>
      <trkpt lat="46.72656" lon="-1.96755">
        <ele>13</ele>
        <time>2026-02-24T14:54:26Z</time>
      </trkpt>
      <trkpt lat="46.72654" lon="-1.96751">
        <ele>13</ele>
        <time>2026-02-24T14:54:31Z</time>
      </trkpt>
      <trkpt lat="46.72652" lon="-1.96749">
        <ele>13</ele>
        <time>2026-02-24T14:54:35Z</time>
      </trkpt>
      <trkpt lat="46.72649" lon="-1.96748">
        <ele>14</ele>
        <time>2026-02-24T14:54:38Z</time>
      </trkpt>
      <trkpt lat="46.72646" lon="-1.96747">
        <ele>14</ele>
        <time>2026-02-24T14:54:42Z</time>
      </trkpt>
      <trkpt lat="46.72643" lon="-1.96746">
        <ele>14</ele>
        <time>2026-02-24T14:54:45Z</time>
      </trkpt>
      <trkpt lat="46.7264" lon="-1.96744">
        <ele>14</ele>
        <time>2026-02-24T14:54:49Z</time>
      </trkpt>
      <trkpt lat="46.72637" lon="-1.96742">
        <ele>13</ele>
        <time>2026-02-24T14:54:52Z</time>
      </trkpt>
      <trkpt lat="46.72634" lon="-1.9674">
        <ele>13</ele>
        <time>2026-02-24T14:54:55Z</time>
      </trkpt>
      <trkpt lat="46.72631" lon="-1.96738">
        <ele>13</ele>
        <time>2026-02-24T14:54:58Z</time>
      </trkpt>
      <trkpt lat="46.72628" lon="-1.96736">
        <ele>13</ele>
        <time>2026-02-24T14:55:01Z</time>
      </trkpt>
      <trkpt lat="46.72625" lon="-1.96734">
        <ele>12</ele>
        <time>2026-02-24T14:55:05Z</time>
      </trkpt>
      <trkpt lat="46.72623" lon="-1.96731">
        <ele>12</ele>
        <time>2026-02-24T14:55:08Z</time>
      </trkpt>
      <trkpt lat="46.7262" lon="-1.96729">
        <ele>12</ele>
        <time>2026-02-24T14:55:11Z</time>
      </trkpt>
      <trkpt lat="46.72616" lon="-1.96727">
        <ele>12</ele>
        <time>2026-02-24T14:55:14Z</time>
      </trkpt>
      <trkpt lat="46.72613" lon="-1.96724">
        <ele>11</ele>
        <time>2026-02-24T14:55:17Z</time>
      </trkpt>
      <trkpt lat="46.7261" lon="-1.96723">
        <ele>11</ele>
        <time>2026-02-24T14:55:20Z</time>
      </trkpt>
      <trkpt lat="46.72607" lon="-1.96723">
        <ele>11</ele>
        <time>2026-02-24T14:55:24Z</time>
      </trkpt>
      <trkpt lat="46.72605" lon="-1.96725">
        <ele>11</ele>
        <time>2026-02-24T14:55:28Z</time>
      </trkpt>
      <trkpt lat="46.72603" lon="-1.96728">
        <ele>11</ele>
        <time>2026-02-24T14:55:31Z</time>
      </trkpt>
      <trkpt lat="46.72601" lon="-1.96731">
        <ele>10</ele>
        <time>2026-02-24T14:55:35Z</time>
      </trkpt>
      <trkpt lat="46.72598" lon="-1.96735">
        <ele>10</ele>
        <time>2026-02-24T14:55:38Z</time>
      </trkpt>
      <trkpt lat="46.72596" lon="-1.96739">
        <ele>10</ele>
        <time>2026-02-24T14:55:41Z</time>
      </trkpt>
      <trkpt lat="46.72595" lon="-1.96743">
        <ele>9</ele>
        <time>2026-02-24T14:55:44Z</time>
      </trkpt>
      <trkpt lat="46.72594" lon="-1.96747">
        <ele>9</ele>
        <time>2026-02-24T14:55:47Z</time>
      </trkpt>
      <trkpt lat="46.72592" lon="-1.9675">
        <ele>9</ele>
        <time>2026-02-24T14:55:50Z</time>
      </trkpt>
      <trkpt lat="46.7259" lon="-1.96753">
        <ele>9</ele>
        <time>2026-02-24T14:55:54Z</time>
      </trkpt>
      <trkpt lat="46.72587" lon="-1.96754">
        <ele>9</ele>
        <time>2026-02-24T14:55:57Z</time>
      </trkpt>
      <trkpt lat="46.72583" lon="-1.96754">
        <ele>9</ele>
        <time>2026-02-24T14:56:00Z</time>
      </trkpt>
      <trkpt lat="46.72578" lon="-1.96752">
        <ele>9</ele>
        <time>2026-02-24T14:56:03Z</time>
      </trkpt>
      <trkpt lat="46.72576" lon="-1.96752">
        <ele>9</ele>
        <time>2026-02-24T14:56:06Z</time>
      </trkpt>
      <trkpt lat="46.72572" lon="-1.96752">
        <ele>9</ele>
        <time>2026-02-24T14:56:09Z</time>
      </trkpt>
      <trkpt lat="46.72568" lon="-1.96751">
        <ele>10</ele>
        <time>2026-02-24T14:56:11Z</time>
      </trkpt>
      <trkpt lat="46.72565" lon="-1.9675">
        <ele>10</ele>
        <time>2026-02-24T14:56:14Z</time>
      </trkpt>
      <trkpt lat="46.72562" lon="-1.96748">
        <ele>10</ele>
        <time>2026-02-24T14:56:17Z</time>
      </trkpt>
      <trkpt lat="46.7256" lon="-1.96746">
        <ele>10</ele>
        <time>2026-02-24T14:56:19Z</time>
      </trkpt>
      <trkpt lat="46.72557" lon="-1.96744">
        <ele>10</ele>
        <time>2026-02-24T14:56:22Z</time>
      </trkpt>
      <trkpt lat="46.72554" lon="-1.96744">
        <ele>10</ele>
        <time>2026-02-24T14:56:25Z</time>
      </trkpt>
      <trkpt lat="46.72551" lon="-1.96744">
        <ele>9</ele>
        <time>2026-02-24T14:56:29Z</time>
      </trkpt>
      <trkpt lat="46.72548" lon="-1.96744">
        <ele>9</ele>
        <time>2026-02-24T14:56:32Z</time>
      </trkpt>
      <trkpt lat="46.72544" lon="-1.96742">
        <ele>8</ele>
        <time>2026-02-24T14:56:35Z</time>
      </trkpt>
      <trkpt lat="46.72541" lon="-1.96741">
        <ele>8</ele>
        <time>2026-02-24T14:56:38Z</time>
      </trkpt>
      <trkpt lat="46.72538" lon="-1.96739">
        <ele>8</ele>
        <time>2026-02-24T14:56:40Z</time>
      </trkpt>
      <trkpt lat="46.72534" lon="-1.96737">
        <ele>8</ele>
        <time>2026-02-24T14:56:42Z</time>
      </trkpt>
      <trkpt lat="46.72531" lon="-1.96737">
        <ele>8</ele>
        <time>2026-02-24T14:56:44Z</time>
      </trkpt>
      <trkpt lat="46.72528" lon="-1.96736">
        <ele>8</ele>
        <time>2026-02-24T14:56:46Z</time>
      </trkpt>
      <trkpt lat="46.72525" lon="-1.96735">
        <ele>7</ele>
        <time>2026-02-24T14:56:49Z</time>
      </trkpt>
      <trkpt lat="46.72521" lon="-1.96735">
        <ele>7</ele>
        <time>2026-02-24T14:56:51Z</time>
      </trkpt>
      <trkpt lat="46.72518" lon="-1.96734">
        <ele>7</ele>
        <time>2026-02-24T14:56:54Z</time>
      </trkpt>
      <trkpt lat="46.72515" lon="-1.96733">
        <ele>7</ele>
        <time>2026-02-24T14:56:56Z</time>
      </trkpt>
      <trkpt lat="46.72513" lon="-1.96733">
        <ele>7</ele>
        <time>2026-02-24T14:56:58Z</time>
      </trkpt>
      <trkpt lat="46.72509" lon="-1.96731">
        <ele>6</ele>
        <time>2026-02-24T14:57:01Z</time>
      </trkpt>
      <trkpt lat="46.72506" lon="-1.9673">
        <ele>5</ele>
        <time>2026-02-24T14:57:04Z</time>
      </trkpt>
      <trkpt lat="46.72503" lon="-1.9673">
        <ele>6</ele>
        <time>2026-02-24T14:57:06Z</time>
      </trkpt>
      <trkpt lat="46.72499" lon="-1.96731">
        <ele>6</ele>
        <time>2026-02-24T14:57:09Z</time>
      </trkpt>
      <trkpt lat="46.72496" lon="-1.96733">
        <ele>7</ele>
        <time>2026-02-24T14:57:11Z</time>
      </trkpt>
      <trkpt lat="46.72492" lon="-1.96733">
        <ele>9</ele>
        <time>2026-02-24T14:57:14Z</time>
      </trkpt>
      <trkpt lat="46.72489" lon="-1.96732">
        <ele>10</ele>
        <time>2026-02-24T14:57:17Z</time>
      </trkpt>
      <trkpt lat="46.72485" lon="-1.96731">
        <ele>10</ele>
        <time>2026-02-24T14:57:20Z</time>
      </trkpt>
      <trkpt lat="46.72482" lon="-1.9673">
        <ele>11</ele>
        <time>2026-02-24T14:57:22Z</time>
      </trkpt>
      <trkpt lat="46.72479" lon="-1.96729">
        <ele>11</ele>
        <time>2026-02-24T14:57:24Z</time>
      </trkpt>
      <trkpt lat="46.72476" lon="-1.96727">
        <ele>11</ele>
        <time>2026-02-24T14:57:26Z</time>
      </trkpt>
      <trkpt lat="46.72473" lon="-1.96726">
        <ele>10</ele>
        <time>2026-02-24T14:57:29Z</time>
      </trkpt>
      <trkpt lat="46.72469" lon="-1.96726">
        <ele>9</ele>
        <time>2026-02-24T14:57:34Z</time>
      </trkpt>
      <trkpt lat="46.72467" lon="-1.96727">
        <ele>9</ele>
        <time>2026-02-24T14:57:37Z</time>
      </trkpt>
      <trkpt lat="46.72464" lon="-1.96729">
        <ele>8</ele>
        <time>2026-02-24T14:57:40Z</time>
      </trkpt>
      <trkpt lat="46.72461" lon="-1.9673">
        <ele>8</ele>
        <time>2026-02-24T14:57:44Z</time>
      </trkpt>
      <trkpt lat="46.72458" lon="-1.96729">
        <ele>7</ele>
        <time>2026-02-24T14:57:48Z</time>
      </trkpt>
      <trkpt lat="46.72456" lon="-1.96726">
        <ele>6</ele>
        <time>2026-02-24T14:57:54Z</time>
      </trkpt>
      <trkpt lat="46.72456" lon="-1.96728">
        <ele>6</ele>
        <time>2026-02-24T14:58:05Z</time>
      </trkpt>
      <trkpt lat="46.72452" lon="-1.96726">
        <ele>7</ele>
        <time>2026-02-24T14:58:15Z</time>
      </trkpt>
      <trkpt lat="46.72449" lon="-1.96724">
        <ele>7</ele>
        <time>2026-02-24T14:58:18Z</time>
      </trkpt>
      <trkpt lat="46.72447" lon="-1.96722">
        <ele>7</ele>
        <time>2026-02-24T14:58:21Z</time>
      </trkpt>
      <trkpt lat="46.72444" lon="-1.96719">
        <ele>7</ele>
        <time>2026-02-24T14:58:23Z</time>
      </trkpt>
      <trkpt lat="46.72441" lon="-1.96717">
        <ele>6</ele>
        <time>2026-02-24T14:58:26Z</time>
      </trkpt>
      <trkpt lat="46.72439" lon="-1.96715">
        <ele>5</ele>
        <time>2026-02-24T14:58:54Z</time>
      </trkpt>
      <trkpt lat="46.72436" lon="-1.96712">
        <ele>5</ele>
        <time>2026-02-24T14:58:57Z</time>
      </trkpt>
      <trkpt lat="46.72434" lon="-1.9671">
        <ele>5</ele>
        <time>2026-02-24T14:59:00Z</time>
      </trkpt>
      <trkpt lat="46.72431" lon="-1.96708">
        <ele>5</ele>
        <time>2026-02-24T14:59:02Z</time>
      </trkpt>
      <trkpt lat="46.72428" lon="-1.96706">
        <ele>5</ele>
        <time>2026-02-24T14:59:04Z</time>
      </trkpt>
      <trkpt lat="46.72425" lon="-1.96703">
        <ele>5</ele>
        <time>2026-02-24T14:59:06Z</time>
      </trkpt>
      <trkpt lat="46.72422" lon="-1.967">
        <ele>5</ele>
        <time>2026-02-24T14:59:08Z</time>
      </trkpt>
      <trkpt lat="46.72419" lon="-1.96697">
        <ele>5</ele>
        <time>2026-02-24T14:59:10Z</time>
      </trkpt>
      <trkpt lat="46.72417" lon="-1.96694">
        <ele>5</ele>
        <time>2026-02-24T14:59:12Z</time>
      </trkpt>
      <trkpt lat="46.72415" lon="-1.96692">
        <ele>5</ele>
        <time>2026-02-24T14:59:15Z</time>
      </trkpt>
      <trkpt lat="46.72412" lon="-1.9669">
        <ele>5</ele>
        <time>2026-02-24T14:59:18Z</time>
      </trkpt>
      <trkpt lat="46.72409" lon="-1.96688">
        <ele>5</ele>
        <time>2026-02-24T14:59:21Z</time>
      </trkpt>
      <trkpt lat="46.72406" lon="-1.96686">
        <ele>6</ele>
        <time>2026-02-24T14:59:25Z</time>
      </trkpt>
      <trkpt lat="46.72403" lon="-1.96684">
        <ele>6</ele>
        <time>2026-02-24T14:59:28Z</time>
      </trkpt>
      <trkpt lat="46.724" lon="-1.96681">
        <ele>6</ele>
        <time>2026-02-24T14:59:30Z</time>
      </trkpt>
      <trkpt lat="46.72396" lon="-1.96678">
        <ele>6</ele>
        <time>2026-02-24T14:59:33Z</time>
      </trkpt>
      <trkpt lat="46.72393" lon="-1.96676">
        <ele>6</ele>
        <time>2026-02-24T14:59:36Z</time>
      </trkpt>
      <trkpt lat="46.7239" lon="-1.96673">
        <ele>6</ele>
        <time>2026-02-24T14:59:39Z</time>
      </trkpt>
      <trkpt lat="46.72387" lon="-1.96671">
        <ele>6</ele>
        <time>2026-02-24T14:59:41Z</time>
      </trkpt>
      <trkpt lat="46.72384" lon="-1.96669">
        <ele>6</ele>
        <time>2026-02-24T14:59:43Z</time>
      </trkpt>
      <trkpt lat="46.72382" lon="-1.96667">
        <ele>6</ele>
        <time>2026-02-24T14:59:47Z</time>
      </trkpt>
      <trkpt lat="46.72379" lon="-1.96665">
        <ele>6</ele>
        <time>2026-02-24T14:59:50Z</time>
      </trkpt>
      <trkpt lat="46.72376" lon="-1.96662">
        <ele>6</ele>
        <time>2026-02-24T14:59:52Z</time>
      </trkpt>
      <trkpt lat="46.72373" lon="-1.96659">
        <ele>6</ele>
        <time>2026-02-24T14:59:55Z</time>
      </trkpt>
      <trkpt lat="46.72371" lon="-1.96656">
        <ele>6</ele>
        <time>2026-02-24T14:59:57Z</time>
      </trkpt>
      <trkpt lat="46.72369" lon="-1.96653">
        <ele>6</ele>
        <time>2026-02-24T14:59:59Z</time>
      </trkpt>
      <trkpt lat="46.72367" lon="-1.9665">
        <ele>6</ele>
        <time>2026-02-24T15:00:02Z</time>
      </trkpt>
      <trkpt lat="46.72364" lon="-1.96647">
        <ele>6</ele>
        <time>2026-02-24T15:00:04Z</time>
      </trkpt>
      <trkpt lat="46.72361" lon="-1.96645">
        <ele>6</ele>
        <time>2026-02-24T15:00:07Z</time>
      </trkpt>
      <trkpt lat="46.72359" lon="-1.96642">
        <ele>6</ele>
        <time>2026-02-24T15:00:09Z</time>
      </trkpt>
      <trkpt lat="46.72356" lon="-1.9664">
        <ele>7</ele>
        <time>2026-02-24T15:00:11Z</time>
      </trkpt>
      <trkpt lat="46.72353" lon="-1.96638">
        <ele>7</ele>
        <time>2026-02-24T15:00:14Z</time>
      </trkpt>
      <trkpt lat="46.7235" lon="-1.96635">
        <ele>7</ele>
        <time>2026-02-24T15:00:18Z</time>
      </trkpt>
      <trkpt lat="46.72347" lon="-1.96633">
        <ele>7</ele>
        <time>2026-02-24T15:00:21Z</time>
      </trkpt>
      <trkpt lat="46.72345" lon="-1.96632">
        <ele>6</ele>
        <time>2026-02-24T15:00:23Z</time>
      </trkpt>
      <trkpt lat="46.72342" lon="-1.96631">
        <ele>6</ele>
        <time>2026-02-24T15:00:25Z</time>
      </trkpt>
      <trkpt lat="46.7234" lon="-1.96629">
        <ele>6</ele>
        <time>2026-02-24T15:00:27Z</time>
      </trkpt>
      <trkpt lat="46.72338" lon="-1.96625">
        <ele>5</ele>
        <time>2026-02-24T15:00:29Z</time>
      </trkpt>
      <trkpt lat="46.72336" lon="-1.96622">
        <ele>4</ele>
        <time>2026-02-24T15:00:31Z</time>
      </trkpt>
      <trkpt lat="46.72336" lon="-1.96618">
        <ele>4</ele>
        <time>2026-02-24T15:00:34Z</time>
      </trkpt>
      <trkpt lat="46.72337" lon="-1.96614">
        <ele>3</ele>
        <time>2026-02-24T15:00:38Z</time>
      </trkpt>
      <trkpt lat="46.72339" lon="-1.9661">
        <ele>3</ele>
        <time>2026-02-24T15:00:41Z</time>
      </trkpt>
      <trkpt lat="46.7234" lon="-1.96605">
        <ele>3</ele>
        <time>2026-02-24T15:00:44Z</time>
      </trkpt>
      <trkpt lat="46.72342" lon="-1.96602">
        <ele>2</ele>
        <time>2026-02-24T15:00:46Z</time>
      </trkpt>
      <trkpt lat="46.72344" lon="-1.96598">
        <ele>2</ele>
        <time>2026-02-24T15:00:49Z</time>
      </trkpt>
      <trkpt lat="46.72346" lon="-1.96593">
        <ele>1</ele>
        <time>2026-02-24T15:00:52Z</time>
      </trkpt>
      <trkpt lat="46.72348" lon="-1.96589">
        <ele>1</ele>
        <time>2026-02-24T15:00:55Z</time>
      </trkpt>
      <trkpt lat="46.72349" lon="-1.96585">
        <ele>10.2</ele>
        <time>2026-02-24T15:00:58Z</time>
      </trkpt>
      <trkpt lat="46.7235" lon="-1.9658">
        <ele>10.3</ele>
        <time>2026-02-24T15:01:01Z</time>
      </trkpt>
      <trkpt lat="46.7235" lon="-1.96576">
        <ele>10.4</ele>
        <time>2026-02-24T15:01:04Z</time>
      </trkpt>
      <trkpt lat="46.72352" lon="-1.96573">
        <ele>10.6</ele>
        <time>2026-02-24T15:01:07Z</time>
      </trkpt>
      <trkpt lat="46.72353" lon="-1.96568">
        <ele>10.8</ele>
        <time>2026-02-24T15:01:10Z</time>
      </trkpt>
      <trkpt lat="46.72354" lon="-1.96564">
        <ele>11</ele>
        <time>2026-02-24T15:01:12Z</time>
      </trkpt>
      <trkpt lat="46.72355" lon="-1.96559">
        <ele>11.2</ele>
        <time>2026-02-24T15:01:14Z</time>
      </trkpt>
      <trkpt lat="46.72355" lon="-1.96555">
        <ele>11.3</ele>
        <time>2026-02-24T15:01:16Z</time>
      </trkpt>
      <trkpt lat="46.72355" lon="-1.96551">
        <ele>11.3</ele>
        <time>2026-02-24T15:01:18Z</time>
      </trkpt>
      <trkpt lat="46.72356" lon="-1.96546">
        <ele>-1</ele>
        <time>2026-02-24T15:01:21Z</time>
      </trkpt>
      <trkpt lat="46.72356" lon="-1.96542">
        <ele>-1</ele>
        <time>2026-02-24T15:01:23Z</time>
      </trkpt>
      <trkpt lat="46.72357" lon="-1.96538">
        <ele>-1</ele>
        <time>2026-02-24T15:01:25Z</time>
      </trkpt>
      <trkpt lat="46.72358" lon="-1.96533">
        <ele>11.7</ele>
        <time>2026-02-24T15:01:27Z</time>
      </trkpt>
      <trkpt lat="46.72359" lon="-1.96528">
        <ele>11.8</ele>
        <time>2026-02-24T15:01:29Z</time>
      </trkpt>
      <trkpt lat="46.7236" lon="-1.96523">
        <ele>1</ele>
        <time>2026-02-24T15:01:31Z</time>
      </trkpt>
      <trkpt lat="46.72361" lon="-1.96518">
        <ele>2</ele>
        <time>2026-02-24T15:01:33Z</time>
      </trkpt>
      <trkpt lat="46.72362" lon="-1.96513">
        <ele>3</ele>
        <time>2026-02-24T15:01:35Z</time>
      </trkpt>
      <trkpt lat="46.72362" lon="-1.96509">
        <ele>4</ele>
        <time>2026-02-24T15:01:37Z</time>
      </trkpt>
      <trkpt lat="46.72363" lon="-1.96505">
        <ele>5</ele>
        <time>2026-02-24T15:01:39Z</time>
      </trkpt>
      <trkpt lat="46.72365" lon="-1.96501">
        <ele>6</ele>
        <time>2026-02-24T15:01:42Z</time>
      </trkpt>
      <trkpt lat="46.72367" lon="-1.96497">
        <ele>6</ele>
        <time>2026-02-24T15:01:44Z</time>
      </trkpt>
      <trkpt lat="46.72369" lon="-1.96493">
        <ele>6</ele>
        <time>2026-02-24T15:01:47Z</time>
      </trkpt>
      <trkpt lat="46.72371" lon="-1.9649">
        <ele>6</ele>
        <time>2026-02-24T15:01:50Z</time>
      </trkpt>
      <trkpt lat="46.72372" lon="-1.96486">
        <ele>5</ele>
        <time>2026-02-24T15:01:53Z</time>
      </trkpt>
      <trkpt lat="46.72374" lon="-1.96482">
        <ele>5</ele>
        <time>2026-02-24T15:01:55Z</time>
      </trkpt>
      <trkpt lat="46.72375" lon="-1.96477">
        <ele>5</ele>
        <time>2026-02-24T15:01:58Z</time>
      </trkpt>
      <trkpt lat="46.72376" lon="-1.96473">
        <ele>4</ele>
        <time>2026-02-24T15:02:00Z</time>
      </trkpt>
      <trkpt lat="46.72377" lon="-1.96469">
        <ele>4</ele>
        <time>2026-02-24T15:02:02Z</time>
      </trkpt>
      <trkpt lat="46.72379" lon="-1.96464">
        <ele>4</ele>
        <time>2026-02-24T15:02:05Z</time>
      </trkpt>
      <trkpt lat="46.7238" lon="-1.96459">
        <ele>3</ele>
        <time>2026-02-24T15:02:07Z</time>
      </trkpt>
      <trkpt lat="46.72381" lon="-1.96454">
        <ele>2</ele>
        <time>2026-02-24T15:02:09Z</time>
      </trkpt>
      <trkpt lat="46.72382" lon="-1.96449">
        <ele>2</ele>
        <time>2026-02-24T15:02:11Z</time>
      </trkpt>
      <trkpt lat="46.72383" lon="-1.96445">
        <ele>1</ele>
        <time>2026-02-24T15:02:13Z</time>
      </trkpt>
      <trkpt lat="46.72384" lon="-1.9644">
        <ele>8.9</ele>
        <time>2026-02-24T15:02:16Z</time>
      </trkpt>
      <trkpt lat="46.72384" lon="-1.96435">
        <ele>8.9</ele>
        <time>2026-02-24T15:02:18Z</time>
      </trkpt>
      <trkpt lat="46.72384" lon="-1.9643">
        <ele>8.9</ele>
        <time>2026-02-24T15:02:21Z</time>
      </trkpt>
      <trkpt lat="46.72384" lon="-1.96424">
        <ele>9</ele>
        <time>2026-02-24T15:02:24Z</time>
      </trkpt>
      <trkpt lat="46.72382" lon="-1.96419">
        <ele>-1</ele>
        <time>2026-02-24T15:02:27Z</time>
      </trkpt>
      <trkpt lat="46.7238" lon="-1.96415">
        <ele>-2</ele>
        <time>2026-02-24T15:02:29Z</time>
      </trkpt>
      <trkpt lat="46.72378" lon="-1.96412">
        <ele>-3</ele>
        <time>2026-02-24T15:02:32Z</time>
      </trkpt>
      <trkpt lat="46.72376" lon="-1.96409">
        <ele>-4</ele>
        <time>2026-02-24T15:02:36Z</time>
      </trkpt>
      <trkpt lat="46.72374" lon="-1.96407">
        <ele>-5</ele>
        <time>2026-02-24T15:02:42Z</time>
      </trkpt>
      <trkpt lat="46.72368" lon="-1.96407">
        <ele>-4</ele>
        <time>2026-02-24T15:03:11Z</time>
      </trkpt>
      <trkpt lat="46.72364" lon="-1.96407">
        <ele>-4</ele>
        <time>2026-02-24T15:03:14Z</time>
      </trkpt>
      <trkpt lat="46.72361" lon="-1.96406">
        <ele>-3</ele>
        <time>2026-02-24T15:03:18Z</time>
      </trkpt>
      <trkpt lat="46.72357" lon="-1.96405">
        <ele>-2</ele>
        <time>2026-02-24T15:03:22Z</time>
      </trkpt>
      <trkpt lat="46.72354" lon="-1.96404">
        <ele>-2</ele>
        <time>2026-02-24T15:03:26Z</time>
      </trkpt>
      <trkpt lat="46.72351" lon="-1.96403">
        <ele>-1</ele>
        <time>2026-02-24T15:03:30Z</time>
      </trkpt>
      <trkpt lat="46.72347" lon="-1.96401">
        <ele>-1</ele>
        <time>2026-02-24T15:03:33Z</time>
      </trkpt>
      <trkpt lat="46.72344" lon="-1.964">
        <ele>-1</ele>
        <time>2026-02-24T15:03:36Z</time>
      </trkpt>
      <trkpt lat="46.72341" lon="-1.96399">
        <ele>-1</ele>
        <time>2026-02-24T15:03:38Z</time>
      </trkpt>
      <trkpt lat="46.72337" lon="-1.96396">
        <ele>-1</ele>
        <time>2026-02-24T15:03:41Z</time>
      </trkpt>
      <trkpt lat="46.72334" lon="-1.96394">
        <ele>-1</ele>
        <time>2026-02-24T15:03:43Z</time>
      </trkpt>
      <trkpt lat="46.72333" lon="-1.9639">
        <ele>-1</ele>
        <time>2026-02-24T15:03:47Z</time>
      </trkpt>
      <trkpt lat="46.72332" lon="-1.96386">
        <ele>-1</ele>
        <time>2026-02-24T15:03:50Z</time>
      </trkpt>
      <trkpt lat="46.72332" lon="-1.96381">
        <ele>10</ele>
        <time>2026-02-24T15:03:53Z</time>
      </trkpt>
      <trkpt lat="46.72332" lon="-1.96377">
        <ele>10</ele>
        <time>2026-02-24T15:03:56Z</time>
      </trkpt>
      <trkpt lat="46.72332" lon="-1.96373">
        <ele>10</ele>
        <time>2026-02-24T15:03:59Z</time>
      </trkpt>
      <trkpt lat="46.72333" lon="-1.96368">
        <ele>10</ele>
        <time>2026-02-24T15:04:02Z</time>
      </trkpt>
      <trkpt lat="46.72335" lon="-1.96363">
        <ele>10</ele>
        <time>2026-02-24T15:04:04Z</time>
      </trkpt>
      <trkpt lat="46.72336" lon="-1.96358">
        <ele>1</ele>
        <time>2026-02-24T15:04:07Z</time>
      </trkpt>
      <trkpt lat="46.72337" lon="-1.96353">
        <ele>1</ele>
        <time>2026-02-24T15:04:10Z</time>
      </trkpt>
      <trkpt lat="46.72338" lon="-1.96348">
        <ele>1</ele>
        <time>2026-02-24T15:04:13Z</time>
      </trkpt>
      <trkpt lat="46.72339" lon="-1.96344">
        <ele>1</ele>
        <time>2026-02-24T15:04:15Z</time>
      </trkpt>
      <trkpt lat="46.72339" lon="-1.96339">
        <ele>1</ele>
        <time>2026-02-24T15:04:17Z</time>
      </trkpt>
      <trkpt lat="46.72339" lon="-1.96334">
        <ele>1</ele>
        <time>2026-02-24T15:04:19Z</time>
      </trkpt>
      <trkpt lat="46.72339" lon="-1.9633">
        <ele>1</ele>
        <time>2026-02-24T15:04:22Z</time>
      </trkpt>
      <trkpt lat="46.7234" lon="-1.96326">
        <ele>1</ele>
        <time>2026-02-24T15:04:25Z</time>
      </trkpt>
      <trkpt lat="46.72342" lon="-1.96322">
        <ele>9.3</ele>
        <time>2026-02-24T15:04:28Z</time>
      </trkpt>
      <trkpt lat="46.72344" lon="-1.96319">
        <ele>9.4</ele>
        <time>2026-02-24T15:04:31Z</time>
      </trkpt>
      <trkpt lat="46.72346" lon="-1.96316">
        <ele>9.6</ele>
        <time>2026-02-24T15:04:33Z</time>
      </trkpt>
      <trkpt lat="46.72347" lon="-1.96312">
        <ele>9.8</ele>
        <time>2026-02-24T15:04:35Z</time>
      </trkpt>
      <trkpt lat="46.72349" lon="-1.96308">
        <ele>-1</ele>
        <time>2026-02-24T15:04:38Z</time>
      </trkpt>
      <trkpt lat="46.72348" lon="-1.96308">
        <ele>-1</ele>
        <time>2026-02-24T15:04:46Z</time>
      </trkpt>
      <trkpt lat="46.72346" lon="-1.96309">
        <ele>9.8</ele>
        <time>2026-02-24T15:04:52Z</time>
      </trkpt>
      <trkpt lat="46.72347" lon="-1.96308">
        <ele>9.9</ele>
        <time>2026-02-24T15:04:59Z</time>
      </trkpt>
      <trkpt lat="46.72347" lon="-1.96304">
        <ele>1</ele>
        <time>2026-02-24T15:05:02Z</time>
      </trkpt>
      <trkpt lat="46.72348" lon="-1.963">
        <ele>1</ele>
        <time>2026-02-24T15:05:04Z</time>
      </trkpt>
      <trkpt lat="46.72349" lon="-1.96295">
        <ele>2</ele>
        <time>2026-02-24T15:05:07Z</time>
      </trkpt>
      <trkpt lat="46.72351" lon="-1.96292">
        <ele>2</ele>
        <time>2026-02-24T15:05:09Z</time>
      </trkpt>
      <trkpt lat="46.72353" lon="-1.96289">
        <ele>2</ele>
        <time>2026-02-24T15:05:11Z</time>
      </trkpt>
      <trkpt lat="46.72355" lon="-1.96285">
        <ele>2</ele>
        <time>2026-02-24T15:05:14Z</time>
      </trkpt>
      <trkpt lat="46.72356" lon="-1.9628">
        <ele>2</ele>
        <time>2026-02-24T15:05:17Z</time>
      </trkpt>
      <trkpt lat="46.72357" lon="-1.96275">
        <ele>2</ele>
        <time>2026-02-24T15:05:20Z</time>
      </trkpt>
      <trkpt lat="46.72357" lon="-1.9627">
        <ele>2</ele>
        <time>2026-02-24T15:05:22Z</time>
      </trkpt>
      <trkpt lat="46.72356" lon="-1.96266">
        <ele>3</ele>
        <time>2026-02-24T15:05:25Z</time>
      </trkpt>
      <trkpt lat="46.72356" lon="-1.96261">
        <ele>3</ele>
        <time>2026-02-24T15:05:28Z</time>
      </trkpt>
      <trkpt lat="46.72356" lon="-1.96256">
        <ele>3</ele>
        <time>2026-02-24T15:05:32Z</time>
      </trkpt>
      <trkpt lat="46.72357" lon="-1.96251">
        <ele>3</ele>
        <time>2026-02-24T15:05:36Z</time>
      </trkpt>
      <trkpt lat="46.7236" lon="-1.96248">
        <ele>4</ele>
        <time>2026-02-24T15:07:27Z</time>
      </trkpt>
      <trkpt lat="46.72362" lon="-1.96244">
        <ele>5</ele>
        <time>2026-02-24T15:07:30Z</time>
      </trkpt>
      <trkpt lat="46.72363" lon="-1.9624">
        <ele>6</ele>
        <time>2026-02-24T15:07:33Z</time>
      </trkpt>
      <trkpt lat="46.72364" lon="-1.96236">
        <ele>6</ele>
        <time>2026-02-24T15:07:35Z</time>
      </trkpt>
      <trkpt lat="46.72364" lon="-1.96231">
        <ele>6</ele>
        <time>2026-02-24T15:07:38Z</time>
      </trkpt>
      <trkpt lat="46.72366" lon="-1.96226">
        <ele>6</ele>
        <time>2026-02-24T15:07:40Z</time>
      </trkpt>
      <trkpt lat="46.72368" lon="-1.96223">
        <ele>7</ele>
        <time>2026-02-24T15:07:42Z</time>
      </trkpt>
      <trkpt lat="46.7237" lon="-1.9622">
        <ele>7</ele>
        <time>2026-02-24T15:07:44Z</time>
      </trkpt>
      <trkpt lat="46.72372" lon="-1.96218">
        <ele>7</ele>
        <time>2026-02-24T15:07:46Z</time>
      </trkpt>
      <trkpt lat="46.72375" lon="-1.96216">
        <ele>7</ele>
        <time>2026-02-24T15:07:49Z</time>
      </trkpt>
      <trkpt lat="46.72378" lon="-1.96213">
        <ele>7</ele>
        <time>2026-02-24T15:07:51Z</time>
      </trkpt>
      <trkpt lat="46.72381" lon="-1.96209">
        <ele>7</ele>
        <time>2026-02-24T15:07:54Z</time>
      </trkpt>
      <trkpt lat="46.72383" lon="-1.96205">
        <ele>6</ele>
        <time>2026-02-24T15:07:57Z</time>
      </trkpt>
      <trkpt lat="46.72384" lon="-1.962">
        <ele>6</ele>
        <time>2026-02-24T15:07:59Z</time>
      </trkpt>
      <trkpt lat="46.72385" lon="-1.96196">
        <ele>6</ele>
        <time>2026-02-24T15:08:01Z</time>
      </trkpt>
      <trkpt lat="46.72386" lon="-1.96191">
        <ele>6</ele>
        <time>2026-02-24T15:08:04Z</time>
      </trkpt>
      <trkpt lat="46.72388" lon="-1.96187">
        <ele>6</ele>
        <time>2026-02-24T15:08:06Z</time>
      </trkpt>
      <trkpt lat="46.7239" lon="-1.96183">
        <ele>7</ele>
        <time>2026-02-24T15:08:09Z</time>
      </trkpt>
      <trkpt lat="46.7239" lon="-1.96178">
        <ele>7</ele>
        <time>2026-02-24T15:08:12Z</time>
      </trkpt>
      <trkpt lat="46.72391" lon="-1.96174">
        <ele>8</ele>
        <time>2026-02-24T15:08:16Z</time>
      </trkpt>
      <trkpt lat="46.72392" lon="-1.9617">
        <ele>8</ele>
        <time>2026-02-24T15:08:20Z</time>
      </trkpt>
      <trkpt lat="46.72392" lon="-1.96164">
        <ele>9</ele>
        <time>2026-02-24T15:08:23Z</time>
      </trkpt>
      <trkpt lat="46.72393" lon="-1.9616">
        <ele>10</ele>
        <time>2026-02-24T15:08:26Z</time>
      </trkpt>
      <trkpt lat="46.72394" lon="-1.96156">
        <ele>10</ele>
        <time>2026-02-24T15:08:29Z</time>
      </trkpt>
      <trkpt lat="46.72394" lon="-1.96151">
        <ele>11</ele>
        <time>2026-02-24T15:08:32Z</time>
      </trkpt>
      <trkpt lat="46.72395" lon="-1.96147">
        <ele>12</ele>
        <time>2026-02-24T15:08:34Z</time>
      </trkpt>
      <trkpt lat="46.72396" lon="-1.96143">
        <ele>13</ele>
        <time>2026-02-24T15:08:36Z</time>
      </trkpt>
      <trkpt lat="46.72397" lon="-1.96139">
        <ele>13</ele>
        <time>2026-02-24T15:08:39Z</time>
      </trkpt>
      <trkpt lat="46.72397" lon="-1.96135">
        <ele>14</ele>
        <time>2026-02-24T15:08:42Z</time>
      </trkpt>
      <trkpt lat="46.72397" lon="-1.96131">
        <ele>15</ele>
        <time>2026-02-24T15:08:45Z</time>
      </trkpt>
      <trkpt lat="46.72397" lon="-1.96126">
        <ele>15</ele>
        <time>2026-02-24T15:08:47Z</time>
      </trkpt>
      <trkpt lat="46.72397" lon="-1.96121">
        <ele>16</ele>
        <time>2026-02-24T15:08:50Z</time>
      </trkpt>
      <trkpt lat="46.72397" lon="-1.96116">
        <ele>15</ele>
        <time>2026-02-24T15:08:52Z</time>
      </trkpt>
      <trkpt lat="46.72396" lon="-1.96112">
        <ele>15</ele>
        <time>2026-02-24T15:08:54Z</time>
      </trkpt>
      <trkpt lat="46.72394" lon="-1.96107">
        <ele>16</ele>
        <time>2026-02-24T15:08:56Z</time>
      </trkpt>
      <trkpt lat="46.72393" lon="-1.96103">
        <ele>16</ele>
        <time>2026-02-24T15:08:58Z</time>
      </trkpt>
      <trkpt lat="46.72392" lon="-1.96097">
        <ele>16</ele>
        <time>2026-02-24T15:09:01Z</time>
      </trkpt>
      <trkpt lat="46.72391" lon="-1.96092">
        <ele>16</ele>
        <time>2026-02-24T15:09:03Z</time>
      </trkpt>
      <trkpt lat="46.72391" lon="-1.96088">
        <ele>16</ele>
        <time>2026-02-24T15:09:05Z</time>
      </trkpt>
      <trkpt lat="46.72391" lon="-1.96083">
        <ele>16</ele>
        <time>2026-02-24T15:09:07Z</time>
      </trkpt>
      <trkpt lat="46.72391" lon="-1.96078">
        <ele>16</ele>
        <time>2026-02-24T15:09:10Z</time>
      </trkpt>
      <trkpt lat="46.72391" lon="-1.96073">
        <ele>16</ele>
        <time>2026-02-24T15:09:13Z</time>
      </trkpt>
      <trkpt lat="46.72391" lon="-1.96067">
        <ele>16</ele>
        <time>2026-02-24T15:09:16Z</time>
      </trkpt>
      <trkpt lat="46.72391" lon="-1.96062">
        <ele>16</ele>
        <time>2026-02-24T15:09:19Z</time>
      </trkpt>
      <trkpt lat="46.72391" lon="-1.96058">
        <ele>15</ele>
        <time>2026-02-24T15:09:23Z</time>
      </trkpt>
      <trkpt lat="46.72391" lon="-1.96052">
        <ele>15</ele>
        <time>2026-02-24T15:09:27Z</time>
      </trkpt>
      <trkpt lat="46.72391" lon="-1.96048">
        <ele>15</ele>
        <time>2026-02-24T15:09:29Z</time>
      </trkpt>
      <trkpt lat="46.72391" lon="-1.96043">
        <ele>15</ele>
        <time>2026-02-24T15:09:31Z</time>
      </trkpt>
      <trkpt lat="46.72391" lon="-1.96039">
        <ele>14</ele>
        <time>2026-02-24T15:09:33Z</time>
      </trkpt>
      <trkpt lat="46.72391" lon="-1.96034">
        <ele>14</ele>
        <time>2026-02-24T15:09:35Z</time>
      </trkpt>
      <trkpt lat="46.72391" lon="-1.96029">
        <ele>13</ele>
        <time>2026-02-24T15:09:37Z</time>
      </trkpt>
      <trkpt lat="46.72391" lon="-1.96024">
        <ele>13</ele>
        <time>2026-02-24T15:09:39Z</time>
      </trkpt>
      <trkpt lat="46.72391" lon="-1.96019">
        <ele>13</ele>
        <time>2026-02-24T15:09:41Z</time>
      </trkpt>
      <trkpt lat="46.72392" lon="-1.96014">
        <ele>14</ele>
        <time>2026-02-24T15:09:43Z</time>
      </trkpt>
      <trkpt lat="46.72392" lon="-1.9601">
        <ele>14</ele>
        <time>2026-02-24T15:09:46Z</time>
      </trkpt>
      <trkpt lat="46.72391" lon="-1.96005">
        <ele>15</ele>
        <time>2026-02-24T15:09:50Z</time>
      </trkpt>
      <trkpt lat="46.72389" lon="-1.96002">
        <ele>16</ele>
        <time>2026-02-24T15:09:53Z</time>
      </trkpt>
      <trkpt lat="46.72386" lon="-1.96">
        <ele>16</ele>
        <time>2026-02-24T15:09:57Z</time>
      </trkpt>
      <trkpt lat="46.72384" lon="-1.95997">
        <ele>17</ele>
        <time>2026-02-24T15:10:00Z</time>
      </trkpt>
      <trkpt lat="46.72382" lon="-1.95994">
        <ele>17</ele>
        <time>2026-02-24T15:10:04Z</time>
      </trkpt>
      <trkpt lat="46.72379" lon="-1.95991">
        <ele>17</ele>
        <time>2026-02-24T15:10:08Z</time>
      </trkpt>
      <trkpt lat="46.72377" lon="-1.95989">
        <ele>18</ele>
        <time>2026-02-24T15:10:11Z</time>
      </trkpt>
      <trkpt lat="46.72374" lon="-1.95987">
        <ele>18</ele>
        <time>2026-02-24T15:10:14Z</time>
      </trkpt>
      <trkpt lat="46.72371" lon="-1.95984">
        <ele>18</ele>
        <time>2026-02-24T15:10:17Z</time>
      </trkpt>
      <trkpt lat="46.72369" lon="-1.95982">
        <ele>18</ele>
        <time>2026-02-24T15:10:20Z</time>
      </trkpt>
      <trkpt lat="46.72365" lon="-1.95981">
        <ele>19</ele>
        <time>2026-02-24T15:10:24Z</time>
      </trkpt>
      <trkpt lat="46.72362" lon="-1.95979">
        <ele>19</ele>
        <time>2026-02-24T15:10:26Z</time>
      </trkpt>
      <trkpt lat="46.72358" lon="-1.95979">
        <ele>19</ele>
        <time>2026-02-24T15:10:29Z</time>
      </trkpt>
      <trkpt lat="46.72354" lon="-1.95979">
        <ele>19</ele>
        <time>2026-02-24T15:10:32Z</time>
      </trkpt>
      <trkpt lat="46.72351" lon="-1.95979">
        <ele>19</ele>
        <time>2026-02-24T15:10:35Z</time>
      </trkpt>
      <trkpt lat="46.72347" lon="-1.9598">
        <ele>19</ele>
        <time>2026-02-24T15:10:38Z</time>
      </trkpt>
      <trkpt lat="46.72345" lon="-1.95982">
        <ele>19</ele>
        <time>2026-02-24T15:10:41Z</time>
      </trkpt>
      <trkpt lat="46.72343" lon="-1.95985">
        <ele>18</ele>
        <time>2026-02-24T15:10:43Z</time>
      </trkpt>
      <trkpt lat="46.72341" lon="-1.95988">
        <ele>17</ele>
        <time>2026-02-24T15:10:45Z</time>
      </trkpt>
      <trkpt lat="46.72338" lon="-1.95992">
        <ele>17</ele>
        <time>2026-02-24T15:10:47Z</time>
      </trkpt>
      <trkpt lat="46.72336" lon="-1.95995">
        <ele>16</ele>
        <time>2026-02-24T15:10:49Z</time>
      </trkpt>
      <trkpt lat="46.72334" lon="-1.95999">
        <ele>16</ele>
        <time>2026-02-24T15:10:52Z</time>
      </trkpt>
      <trkpt lat="46.72331" lon="-1.96003">
        <ele>15</ele>
        <time>2026-02-24T15:10:55Z</time>
      </trkpt>
      <trkpt lat="46.72329" lon="-1.96007">
        <ele>14</ele>
        <time>2026-02-24T15:10:58Z</time>
      </trkpt>
      <trkpt lat="46.72327" lon="-1.96011">
        <ele>13</ele>
        <time>2026-02-24T15:11:00Z</time>
      </trkpt>
      <trkpt lat="46.72325" lon="-1.96014">
        <ele>13</ele>
        <time>2026-02-24T15:11:02Z</time>
      </trkpt>
      <trkpt lat="46.72324" lon="-1.96018">
        <ele>12</ele>
        <time>2026-02-24T15:11:04Z</time>
      </trkpt>
      <trkpt lat="46.72322" lon="-1.96021">
        <ele>12</ele>
        <time>2026-02-24T15:11:06Z</time>
      </trkpt>
      <trkpt lat="46.7232" lon="-1.96024">
        <ele>11</ele>
        <time>2026-02-24T15:11:08Z</time>
      </trkpt>
      <trkpt lat="46.72317" lon="-1.96029">
        <ele>11</ele>
        <time>2026-02-24T15:11:11Z</time>
      </trkpt>
      <trkpt lat="46.72315" lon="-1.96032">
        <ele>10</ele>
        <time>2026-02-24T15:11:13Z</time>
      </trkpt>
      <trkpt lat="46.72313" lon="-1.96036">
        <ele>9</ele>
        <time>2026-02-24T15:11:16Z</time>
      </trkpt>
      <trkpt lat="46.72311" lon="-1.96041">
        <ele>8</ele>
        <time>2026-02-24T15:11:19Z</time>
      </trkpt>
      <trkpt lat="46.72307" lon="-1.96046">
        <ele>7</ele>
        <time>2026-02-24T15:11:21Z</time>
      </trkpt>
      <trkpt lat="46.72305" lon="-1.96049">
        <ele>7</ele>
        <time>2026-02-24T15:11:22Z</time>
      </trkpt>
      <trkpt lat="46.72302" lon="-1.96054">
        <ele>7</ele>
        <time>2026-02-24T15:11:24Z</time>
      </trkpt>
      <trkpt lat="46.72299" lon="-1.96059">
        <ele>7</ele>
        <time>2026-02-24T15:11:26Z</time>
      </trkpt>
      <trkpt lat="46.72297" lon="-1.96063">
        <ele>7</ele>
        <time>2026-02-24T15:11:28Z</time>
      </trkpt>
      <trkpt lat="46.72295" lon="-1.96067">
        <ele>8</ele>
        <time>2026-02-24T15:11:33Z</time>
      </trkpt>
      <trkpt lat="46.72292" lon="-1.96069">
        <ele>9</ele>
        <time>2026-02-24T15:11:38Z</time>
      </trkpt>
      <trkpt lat="46.72289" lon="-1.96071">
        <ele>9</ele>
        <time>2026-02-24T15:11:42Z</time>
      </trkpt>
      <trkpt lat="46.72286" lon="-1.96072">
        <ele>9</ele>
        <time>2026-02-24T15:11:45Z</time>
      </trkpt>
      <trkpt lat="46.72283" lon="-1.96074">
        <ele>9</ele>
        <time>2026-02-24T15:11:48Z</time>
      </trkpt>
      <trkpt lat="46.72281" lon="-1.96077">
        <ele>8</ele>
        <time>2026-02-24T15:11:51Z</time>
      </trkpt>
      <trkpt lat="46.7228" lon="-1.96081">
        <ele>8</ele>
        <time>2026-02-24T15:11:54Z</time>
      </trkpt>
      <trkpt lat="46.72279" lon="-1.96085">
        <ele>7</ele>
        <time>2026-02-24T15:11:56Z</time>
      </trkpt>
      <trkpt lat="46.72279" lon="-1.9609">
        <ele>7</ele>
        <time>2026-02-24T15:11:59Z</time>
      </trkpt>
      <trkpt lat="46.72279" lon="-1.96095">
        <ele>6</ele>
        <time>2026-02-24T15:12:02Z</time>
      </trkpt>
      <trkpt lat="46.72278" lon="-1.961">
        <ele>6</ele>
        <time>2026-02-24T15:12:05Z</time>
      </trkpt>
      <trkpt lat="46.72278" lon="-1.96105">
        <ele>5</ele>
        <time>2026-02-24T15:12:09Z</time>
      </trkpt>
      <trkpt lat="46.72278" lon="-1.9611">
        <ele>5</ele>
        <time>2026-02-24T15:12:13Z</time>
      </trkpt>
      <trkpt lat="46.72279" lon="-1.96115">
        <ele>4</ele>
        <time>2026-02-24T15:12:17Z</time>
      </trkpt>
      <trkpt lat="46.72279" lon="-1.9612">
        <ele>3</ele>
        <time>2026-02-24T15:12:20Z</time>
      </trkpt>
      <trkpt lat="46.72279" lon="-1.96124">
        <ele>3</ele>
        <time>2026-02-24T15:12:23Z</time>
      </trkpt>
      <trkpt lat="46.72279" lon="-1.96129">
        <ele>2</ele>
        <time>2026-02-24T15:12:26Z</time>
      </trkpt>
      <trkpt lat="46.72278" lon="-1.96134">
        <ele>1</ele>
        <time>2026-02-24T15:12:28Z</time>
      </trkpt>
      <trkpt lat="46.72278" lon="-1.96139">
        <ele>1</ele>
        <time>2026-02-24T15:12:30Z</time>
      </trkpt>
      <trkpt lat="46.72277" lon="-1.96144">
        <ele>1</ele>
        <time>2026-02-24T15:12:36Z</time>
      </trkpt>
    </trkseg>
  </trk>
</gpx>